M I D A S
Marine Information and Data Acquisition System
Tripno 749 of the Zeeleeuw from 2004-07-15 07:01:23 to 2004-07-15 15:27:17
Back to CruiseResearch ActivitiesStationsMapUnderway DataData graphs

EquipmentUnitsComment
TimeDGPSUTC
LatitudeDGPSDM.mWGS84
LongitudeDGPSDM.mWGS84
TemperatureSBE03/SBE38deg celciusITS90
ConductivitySBE21S/mITS90
SalinitySBE21 Practical Salinity Units
ChlorophylAChelsea fluorimeterg/lCalibrated in Aceton
Missing or incorrect values are displayed as -999
Sea surface data collected by the RV Zeeleeuw from 2004-07-15 07:01:23 to 2004-07-15 15:27:17
                                                                                    Next 1000 lines
Time Latitude Longitude Temperature Conductivity Salinity ChlorophylA
2004-07-15 07:01:28 51°13.597 2°56.097 20.700626 4.67004 34.394528 -0.646411
2004-07-15 07:01:35 51°13.597 2°56.097 20.701066 4.67004 34.394528 -0.612702
2004-07-15 07:01:40 51°13.597 2°56.097 20.701547 4.669934 34.394242 -0.646411
2004-07-15 07:01:45 51°13.597 2°56.097 20.702028 4.67004 34.394528 -0.646411
2004-07-15 07:01:49 51°13.597 2°56.097 20.702028 4.67004 34.394528 -0.646411
2004-07-15 07:01:55 51°13.597 2°56.097 20.702469 4.67004 34.394528 -0.646411
2004-07-15 07:02:00 51°13.596 2°56.097 20.702909 4.669934 34.393657 -0.612702
2004-07-15 07:02:05 51°13.596 2°56.097 20.70347 4.67004 34.393943 -0.646411
2004-07-15 07:02:09 51°13.596 2°56.097 20.704071 4.670145 34.395399 -0.646411
2004-07-15 07:02:15 51°13.596 2°56.097 20.704552 4.670145 34.395399 -0.612702
2004-07-15 07:02:20 51°13.596 2°56.097 20.704552 4.670145 34.395399 -0.612702
2004-07-15 07:02:25 51°13.596 2°56.097 20.704993 4.67004 34.393943 -0.612702
2004-07-15 07:02:28 51°13.596 2°56.097 20.705433 4.67004 34.393943 -0.612702
2004-07-15 07:02:35 51°13.596 2°56.096 20.705994 4.670145 34.394229 -0.612702
2004-07-15 07:02:40 51°13.596 2°56.094 20.706956 4.670145 34.394229 -0.612702
2004-07-15 07:02:45 51°13.596 2°56.091 20.707396 4.670145 34.394814 -0.612702
2004-07-15 07:02:49 51°13.596 2°56.088 20.707396 4.670145 34.394814 -0.612702
2004-07-15 07:02:55 51°13.597 2°56.083 20.707877 4.670145 34.394229 -0.612702
2004-07-15 07:03:01 51°13.599 2°56.077 20.708238 4.67004 34.393358 -0.646411
2004-07-15 07:03:05 51°13.6 2°56.073 20.708718 4.670251 34.3951 -0.646411
2004-07-15 07:03:11 51°13.602 2°56.066 20.709079 4.670145 34.394229 -0.612702
2004-07-15 07:03:16 51°13.603 2°56.061 20.709479 4.670145 34.394229 -0.646411
2004-07-15 07:03:21 51°13.604 2°56.057 20.709479 4.670145 34.394229 -0.646411
2004-07-15 07:03:25 51°13.605 2°56.055 20.711002 4.670145 34.394229 -0.646411
2004-07-15 07:03:31 51°13.605 2°56.053 20.711002 4.670145 34.393643 -0.646411
2004-07-15 07:03:36 51°13.605 2°56.053 20.711242 4.670251 34.394514 -0.646411
2004-07-15 07:03:41 51°13.604 2°56.054 20.711603 4.670251 34.393929 -0.646411
2004-07-15 07:03:45 51°13.604 2°56.055 20.711883 4.670251 34.393344 -0.646411
2004-07-15 07:03:51 51°13.603 2°56.058 20.711883 4.670251 34.393344 -0.646411
2004-07-15 07:03:55 51°13.602 2°56.06 20.712243 4.670251 34.393929 -0.646411
2004-07-15 07:04:00 51°13.6 2°56.063 20.712524 4.670251 34.393929 -0.612702
2004-07-15 07:04:05 51°13.598 2°56.067 20.712965 4.670251 34.393929 -0.646411
2004-07-15 07:04:11 51°13.596 2°56.072 20.713405 4.670251 34.3951 -0.646411
2004-07-15 07:04:15 51°13.594 2°56.075 20.713846 4.670356 34.395971 -0.646411
2004-07-15 07:04:20 51°13.591 2°56.08 20.713846 4.670356 34.395971 -0.646411
2004-07-15 07:04:25 51°13.589 2°56.085 20.714326 4.670356 34.395385 -0.646411
2004-07-15 07:04:30 51°13.586 2°56.09 20.714887 4.670356 34.395385 -0.646411
2004-07-15 07:04:35 51°13.583 2°56.095 20.715248 4.670356 34.395971 -0.646411
2004-07-15 07:04:40 51°13.58 2°56.1 20.715769 4.670356 34.3948 -0.646411
2004-07-15 07:04:45 51°13.577 2°56.106 20.716169 4.670356 34.3948 -0.646411
2004-07-15 07:04:49 51°13.575 2°56.11 20.71669 4.670356 34.3948 -0.646411
2004-07-15 07:04:55 51°13.571 2°56.117 20.71669 4.670356 34.3948 -0.646411
2004-07-15 07:05:00 51°13.567 2°56.122 20.71705 4.670356 34.395385 -0.646411
2004-07-15 07:05:05 51°13.564 2°56.128 20.717611 4.670462 34.395086 -0.646411
2004-07-15 07:05:10 51°13.561 2°56.133 20.718092 4.670462 34.395086 -0.612702
2004-07-15 07:05:15 51°13.557 2°56.139 20.718532 4.670567 34.395957 -0.646411
2004-07-15 07:05:19 51°13.555 2°56.144 20.718532 4.670567 34.395957 -0.646411
2004-07-15 07:05:25 51°13.551 2°56.15 20.719133 4.670356 34.39363 -0.646411
2004-07-15 07:05:29 51°13.548 2°56.155 20.719574 4.670462 34.394501 -0.646411
2004-07-15 07:05:35 51°13.545 2°56.162 20.720175 4.670462 34.393916 -0.646411
2004-07-15 07:05:40 51°13.542 2°56.168 20.720815 4.670462 34.394501 -0.646411
2004-07-15 07:05:45 51°13.54 2°56.175 20.721576 4.670567 34.395957 -0.646411
2004-07-15 07:05:49 51°13.538 2°56.181 20.721576 4.670567 34.395957 -0.646411
2004-07-15 07:05:55 51°13.536 2°56.19 20.722257 4.670462 34.395671 -0.646411
2004-07-15 07:06:00 51°13.535 2°56.199 20.72462 4.670567 34.396542 -0.612702
2004-07-15 07:06:05 51°13.535 2°56.208 20.724781 4.670462 34.396842 -0.646411
2004-07-15 07:06:11 51°13.536 2°56.218 20.725021 4.670673 34.398584 -0.612702
2004-07-15 07:06:15 51°13.537 2°56.225 20.725461 4.670673 34.398584 -0.646411
2004-07-15 07:06:19 51°13.538 2°56.231 20.725461 4.670673 34.398584 -0.646411
2004-07-15 07:06:25 51°13.539 2°56.239 20.725782 4.670673 34.397998 -0.646411
2004-07-15 07:06:30 51°13.54 2°56.244 20.726823 4.670567 34.396542 -0.612702
2004-07-15 07:06:35 51°13.541 2°56.247 20.719053 4.670567 34.395957 -0.646411
2004-07-15 07:06:39 51°13.542 2°56.249 20.712884 4.670673 34.396243 -0.612702
2004-07-15 07:06:45 51°13.542 2°56.25 20.712364 4.670673 34.396243 -0.612702
2004-07-15 07:06:49 51°13.542 2°56.251 20.712364 4.670673 34.396243 -0.612702
2004-07-15 07:06:52 51°13.541 2°56.251 20.713886 4.670673 34.395072 -0.646411
2004-07-15 07:06:59 51°13.541 2°56.249 20.715248 4.670567 34.394201 -0.612702
2004-07-15 07:07:05 51°13.54 2°56.247 20.71669 4.670673 34.394487 -0.646411
2004-07-15 07:07:11 51°13.538 2°56.244 20.718292 4.670673 34.394487 -0.680121
2004-07-15 07:07:16 51°13.537 2°56.242 20.720054 4.670673 34.394487 -0.612702
2004-07-15 07:07:21 51°13.536 2°56.24 20.720054 4.670673 34.394487 -0.612702
2004-07-15 07:07:25 51°13.535 2°56.239 20.721096 4.670778 34.395358 -0.646411
2004-07-15 07:07:31 51°13.535 2°56.238 20.722257 4.670673 34.393902 -0.646411
2004-07-15 07:07:36 51°13.535 2°56.238 20.723579 4.670778 34.394773 -0.612702
2004-07-15 07:07:41 51°13.535 2°56.239 20.725061 4.670778 34.394188 -0.646411
2004-07-15 07:07:45 51°13.536 2°56.241 20.726263 4.670673 34.393317 -0.646411
2004-07-15 07:07:51 51°13.537 2°56.243 20.726263 4.670673 34.393317 -0.646411
2004-07-15 07:07:56 51°13.538 2°56.245 20.727384 4.670778 34.394773 -0.612702
2004-07-15 07:08:01 51°13.54 2°56.248 20.728425 4.670884 34.395644 -0.612702
2004-07-15 07:08:05 51°13.542 2°56.249 20.729106 4.670778 34.395943 -0.646411
2004-07-15 07:08:11 51°13.544 2°56.251 20.729987 4.670778 34.395943 -0.646411
2004-07-15 07:08:16 51°13.544 2°56.252 20.731509 4.670884 34.396814 -0.612702
2004-07-15 07:08:20 51°13.544 2°56.252 20.731509 4.670884 34.396814 -0.612702
2004-07-15 07:08:25 51°13.543 2°56.252 20.731349 4.670778 34.395943 -0.612702
2004-07-15 07:08:29 51°13.542 2°56.252 20.731108 4.670884 34.396229 -0.646411
2004-07-15 07:08:35 51°13.54 2°56.252 20.731469 4.670884 34.395644 -0.612702
2004-07-15 07:08:40 51°13.537 2°56.251 20.731989 4.670884 34.395059 -0.646411
2004-07-15 07:08:45 51°13.534 2°56.251 20.73243 4.670884 34.395059 -0.612702
2004-07-15 07:08:51 51°13.531 2°56.25 20.733031 4.670778 34.394188 -0.646411
2004-07-15 07:08:56 51°13.529 2°56.25 20.733031 4.670778 34.394188 -0.646411
2004-07-15 07:09:01 51°13.527 2°56.25 20.733752 4.670778 34.394188 -0.646411
2004-07-15 07:09:05 51°13.527 2°56.25 20.735033 4.670989 34.395344 -0.646411
2004-07-15 07:09:11 51°13.528 2°56.25 20.736114 4.670884 34.394473 -0.646411
2004-07-15 07:09:16 51°13.529 2°56.251 20.736995 4.670989 34.395929 -0.612702
2004-07-15 07:09:21 51°13.531 2°56.251 20.736995 4.670989 34.395929 -0.612702
2004-07-15 07:09:25 51°13.533 2°56.251 20.737956 4.670989 34.395929 -0.646411
2004-07-15 07:09:31 51°13.536 2°56.251 20.738597 4.670989 34.3971 -0.646411
2004-07-15 07:09:36 51°13.537 2°56.251 20.739238 4.670884 34.396229 -0.646411
2004-07-15 07:09:41 51°13.539 2°56.252 20.740599 4.670989 34.3971 -0.680121
2004-07-15 07:09:45 51°13.539 2°56.252 20.74136 4.670884 34.396229 -0.646411
2004-07-15 07:09:51 51°13.539 2°56.253 20.74136 4.670884 34.396229 -0.646411
2004-07-15 07:09:55 51°13.538 2°56.254 20.742081 4.671095 34.397386 -0.646411
2004-07-15 07:09:59 51°13.537 2°56.256 20.742641 4.671095 34.3968 -0.646411
2004-07-15 07:10:05 51°13.534 2°56.258 20.742881 4.670989 34.394759 -0.646411
2004-07-15 07:10:11 51°13.531 2°56.26 20.743242 4.671095 34.395045 -0.646411
2004-07-15 07:10:16 51°13.529 2°56.262 20.743722 4.671095 34.395045 -0.612702
2004-07-15 07:10:21 51°13.527 2°56.263 20.743722 4.671095 34.395045 -0.612702
2004-07-15 07:10:25 51°13.525 2°56.265 20.744163 4.671095 34.395045 -0.646411
2004-07-15 07:10:31 51°13.523 2°56.266 20.744763 4.671095 34.395045 -0.612702
2004-07-15 07:10:36 51°13.521 2°56.267 20.745404 4.671095 34.39563 -0.646411
2004-07-15 07:10:40 51°13.521 2°56.268 20.746085 4.670989 34.394759 -0.646411
2004-07-15 07:10:45 51°13.521 2°56.268 20.747686 4.6712 34.396501 -0.612702
2004-07-15 07:10:51 51°13.523 2°56.267 20.749128 4.671095 34.395045 -0.612702
2004-07-15 07:10:55 51°13.525 2°56.265 20.749128 4.671095 34.395045 -0.612702
2004-07-15 07:11:00 51°13.527 2°56.262 20.750289 4.6712 34.395916 -0.612702
2004-07-15 07:11:05 51°13.53 2°56.257 20.751089 4.6712 34.395916 -0.646411
2004-07-15 07:11:09 51°13.533 2°56.253 20.75133 4.6712 34.397086 -0.612702
2004-07-15 07:11:16 51°13.536 2°56.244 20.75141 4.6712 34.398256 -0.646411
2004-07-15 07:11:20 51°13.538 2°56.24 20.75141 4.6712 34.398256 -0.646411
2004-07-15 07:11:25 51°13.54 2°56.234 20.75165 4.671306 34.399127 -0.646411
2004-07-15 07:11:29 51°13.541 2°56.229 20.75193 4.6712 34.398256 -0.612702
2004-07-15 07:11:35 51°13.543 2°56.223 20.752331 4.671306 34.397957 -0.612702
2004-07-15 07:11:39 51°13.544 2°56.218 20.752771 4.671306 34.397372 -0.646411
2004-07-15 07:11:45 51°13.545 2°56.21 20.753251 4.6712 34.395916 -0.612702
2004-07-15 07:11:49 51°13.546 2°56.205 20.753251 4.6712 34.395916 -0.612702
2004-07-15 07:11:55 51°13.548 2°56.199 20.753652 4.6712 34.394746 -0.646411
2004-07-15 07:12:00 51°13.549 2°56.193 20.754172 4.671306 34.395031 -0.646411
2004-07-15 07:12:05 51°13.551 2°56.187 20.754693 4.671306 34.395616 -0.646411
2004-07-15 07:12:10 51°13.552 2°56.181 20.755173 4.671411 34.397072 -0.646411
2004-07-15 07:12:15 51°13.553 2°56.175 20.755774 4.671411 34.397072 -0.646411
2004-07-15 07:12:20 51°13.554 2°56.169 20.755774 4.671411 34.397072 -0.646411
2004-07-15 07:12:23 51°13.555 2°56.165 20.756294 4.671411 34.397072 -0.646411
2004-07-15 07:12:31 51°13.557 2°56.156 20.756814 4.671411 34.396487 -0.612702
2004-07-15 07:12:35 51°13.558 2°56.151 20.757455 4.671306 34.395616 -0.646411
2004-07-15 07:12:40 51°13.56 2°56.146 20.757975 4.671411 34.395902 -0.612702
2004-07-15 07:12:45 51°13.562 2°56.14 20.758656 4.671411 34.397072 -0.646411
2004-07-15 07:12:49 51°13.563 2°56.136 20.758656 4.671411 34.397072 -0.646411
2004-07-15 07:12:55 51°13.565 2°56.129 20.759256 4.671411 34.396487 -0.646411
2004-07-15 07:12:59 51°13.566 2°56.125 20.759817 4.671411 34.395902 -0.646411
2004-07-15 07:13:03 51°13.568 2°56.121 20.760417 4.671517 34.397358 -0.646411
2004-07-15 07:13:11 51°13.57 2°56.111 20.760938 4.671411 34.396487 -0.612702
2004-07-15 07:13:15 51°13.572 2°56.107 20.761618 4.671517 34.397358 -0.612702
2004-07-15 07:13:20 51°13.574 2°56.102 20.761618 4.671517 34.397358 -0.612702
2004-07-15 07:13:25 51°13.575 2°56.097 20.762259 4.671411 34.397072 -0.612702
2004-07-15 07:13:30 51°13.577 2°56.092 20.762699 4.671411 34.395902 -0.612702
2004-07-15 07:13:35 51°13.579 2°56.086 20.76338 4.671411 34.396487 -0.646411
2004-07-15 07:13:40 51°13.581 2°56.081 20.76402 4.671517 34.397358 -0.612702
2004-07-15 07:13:45 51°13.582 2°56.076 20.76462 4.671517 34.397358 -0.646411
2004-07-15 07:13:49 51°13.584 2°56.072 20.76462 4.671517 34.397358 -0.646411
2004-07-15 07:13:55 51°13.586 2°56.066 20.765141 4.671517 34.396773 -0.612702
2004-07-15 07:14:00 51°13.588 2°56.061 20.765741 4.671517 34.396188 -0.646411
2004-07-15 07:14:05 51°13.59 2°56.055 20.766342 4.671411 34.395317 -0.646411
2004-07-15 07:14:08 51°13.591 2°56.052 20.766902 4.671622 34.396474 -0.646411
2004-07-15 07:14:15 51°13.594 2°56.045 20.767502 4.671622 34.396474 -0.646411
2004-07-15 07:14:21 51°13.596 2°56.039 20.767502 4.671622 34.396474 -0.646411
2004-07-15 07:14:24 51°13.597 2°56.036 20.768063 4.671517 34.396188 -0.646411
2004-07-15 07:14:31 51°13.6 2°56.03 20.768583 4.671622 34.396474 -0.646411
2004-07-15 07:14:35 51°13.602 2°56.026 20.769184 4.671517 34.395603 -0.646411
2004-07-15 07:14:40 51°13.604 2°56.021 20.769784 4.671517 34.395603 -0.612702
2004-07-15 07:14:45 51°13.606 2°56.017 20.770304 4.671517 34.395603 -0.612702
2004-07-15 07:14:50 51°13.608 2°56.012 20.770304 4.671517 34.395603 -0.612702
2004-07-15 07:14:55 51°13.611 2°56.007 20.770945 4.671622 34.396474 -0.612702
2004-07-15 07:15:00 51°13.613 2°56.003 20.771465 4.671728 34.396759 -0.612702
2004-07-15 07:15:05 51°13.615 2°55.998 20.771945 4.671622 34.395889 -0.612702
2004-07-15 07:15:09 51°13.616 2°55.994 20.772546 4.671728 34.396759 -0.646411
2004-07-15 07:15:15 51°13.619 2°55.987 20.773066 4.671728 34.396759 -0.646411
2004-07-15 07:15:20 51°13.621 2°55.982 20.773066 4.671728 34.396759 -0.646411
2004-07-15 07:15:25 51°13.623 2°55.977 20.773626 4.671622 34.395304 -0.646411
2004-07-15 07:15:29 51°13.625 2°55.973 20.774147 4.671622 34.395889 -0.612702
2004-07-15 07:15:35 51°13.627 2°55.968 20.774747 4.671728 34.396174 -0.646411
2004-07-15 07:15:40 51°13.629 2°55.964 20.775147 4.671728 34.396174 -0.646411
2004-07-15 07:15:45 51°13.632 2°55.959 20.775667 4.671728 34.396759 -0.646411
2004-07-15 07:15:50 51°13.634 2°55.955 20.775667 4.671728 34.396759 -0.646411
2004-07-15 07:15:55 51°13.636 2°55.95 20.776268 4.671728 34.396174 -0.646411
2004-07-15 07:16:00 51°13.639 2°55.945 20.776748 4.671728 34.396174 -0.646411
2004-07-15 07:16:04 51°13.641 2°55.941 20.777268 4.671833 34.39646 -0.646411
2004-07-15 07:16:09 51°13.643 2°55.936 20.777789 4.671622 34.394719 -0.646411
2004-07-15 07:16:15 51°13.646 2°55.929 20.778349 4.671833 34.39646 -0.646411
2004-07-15 07:16:20 51°13.649 2°55.923 20.778349 4.671833 34.39646 -0.646411
2004-07-15 07:16:25 51°13.652 2°55.917 20.778869 4.671833 34.39646 -0.646411
2004-07-15 07:16:29 51°13.654 2°55.911 20.779469 4.671833 34.39646 -0.612702
2004-07-15 07:16:35 51°13.657 2°55.902 20.77995 4.671728 34.395589 -0.612702
2004-07-15 07:16:40 51°13.66 2°55.895 20.78039 4.671939 34.397331 -0.612702
2004-07-15 07:16:44 51°13.662 2°55.888 20.78099 4.671833 34.395875 -0.646411
2004-07-15 07:16:49 51°13.665 2°55.88 20.78099 4.671833 34.395875 -0.646411
2004-07-15 07:16:55 51°13.669 2°55.869 20.781551 4.671833 34.39529 -0.646411
2004-07-15 07:17:00 51°13.673 2°55.861 20.782151 4.671833 34.395875 -0.646411
2004-07-15 07:17:05 51°13.677 2°55.853 20.782671 4.671833 34.39529 -0.680121
2004-07-15 07:17:10 51°13.681 2°55.843 20.783151 4.671939 34.396161 -0.646411
2004-07-15 07:17:15 51°13.686 2°55.833 20.783672 4.671939 34.395576 -0.612702
2004-07-15 07:17:19 51°13.689 2°55.825 20.783672 4.671939 34.395576 -0.612702
2004-07-15 07:17:25 51°13.695 2°55.812 20.784272 4.671833 34.394705 -0.612702
2004-07-15 07:17:30 51°13.7 2°55.801 20.784752 4.671939 34.396161 -0.646411
2004-07-15 07:17:35 51°13.706 2°55.79 20.785432 4.671939 34.395576 -0.612702
2004-07-15 07:17:39 51°13.71 2°55.781 20.786033 4.671939 34.395576 -0.612702
2004-07-15 07:17:45 51°13.717 2°55.767 20.786553 4.672044 34.395862 -0.612702
2004-07-15 07:17:51 51°13.725 2°55.753 20.787193 4.671939 34.394991 -0.612702
2004-07-15 07:17:55 51°13.73 2°55.744 20.787193 4.671939 34.394991 -0.612702
2004-07-15 07:17:59 51°13.735 2°55.735 20.787713 4.672044 34.395862 -0.646411
2004-07-15 07:18:05 51°13.744 2°55.722 20.788313 4.671939 34.395576 -0.646411
2004-07-15 07:18:09 51°13.75 2°55.713 20.788914 4.671939 34.394991 -0.646411
2004-07-15 07:18:15 51°13.759 2°55.7 20.789554 4.672044 34.395862 -0.646411
2004-07-15 07:18:20 51°13.767 2°55.689 20.789554 4.672044 34.395862 -0.646411
2004-07-15 07:18:25 51°13.775 2°55.679 20.790154 4.672044 34.395862 -0.646411
2004-07-15 07:18:31 51°13.784 2°55.667 20.790754 4.671939 34.394991 -0.646411
2004-07-15 07:18:35 51°13.791 2°55.659 20.791355 4.671939 34.394991 -0.646411
2004-07-15 07:18:40 51°13.8 2°55.649 20.791995 4.672044 34.395277 -0.646411
2004-07-15 07:18:45 51°13.809 2°55.641 20.792595 4.67215 34.396147 -0.646411
2004-07-15 07:18:49 51°13.816 2°55.634 20.792595 4.67215 34.396147 -0.646411
2004-07-15 07:18:55 51°13.827 2°55.624 20.793275 4.672044 34.395277 -0.612702
2004-07-15 07:19:00 51°13.837 2°55.616 20.793875 4.672044 34.395277 -0.612702
2004-07-15 07:19:05 51°13.847 2°55.609 20.794596 4.67215 34.396147 -0.612702
2004-07-15 07:19:09 51°13.856 2°55.604 20.795276 4.67215 34.396732 -0.646411
2004-07-15 07:19:15 51°13.868 2°55.595 20.795956 4.672044 34.395277 -0.612702
2004-07-15 07:19:20 51°13.879 2°55.588 20.795956 4.672044 34.395277 -0.612702
2004-07-15 07:19:25 51°13.89 2°55.58 20.796636 4.67215 34.396732 -0.680121
2004-07-15 07:19:29 51°13.898 2°55.574 20.797236 4.67215 34.396147 -0.646411
2004-07-15 07:19:35 51°13.911 2°55.566 20.797996 4.672255 34.396433 -0.612702
2004-07-15 07:19:39 51°13.92 2°55.56 20.798517 4.67215 34.396147 -0.680121
2004-07-15 07:19:45 51°13.933 2°55.551 20.799357 4.67215 34.395562 -0.646411
2004-07-15 07:19:50 51°13.944 2°55.543 20.799357 4.67215 34.395562 -0.646411
2004-07-15 07:19:55 51°13.956 2°55.536 20.799837 4.67215 34.395562 -0.612702
2004-07-15 07:19:59 51°13.965 2°55.529 20.800517 4.672255 34.396433 -0.646411
2004-07-15 07:20:05 51°13.978 2°55.521 20.801197 4.67215 34.394977 -0.646411
2004-07-15 07:20:07 51°13.983 2°55.518 20.801797 4.672255 34.395848 -0.646411
2004-07-15 07:20:15 51°14.001 2°55.506 20.802477 4.67215 34.394977 -0.646411
2004-07-15 07:20:20 51°14.012 2°55.498 20.803118 4.672255 34.395848 -0.646411
2004-07-15 07:20:25 51°14.023 2°55.49 20.803118 4.672255 34.395848 -0.646411
2004-07-15 07:20:30 51°14.035 2°55.482 20.803638 4.672255 34.395848 -0.646411
2004-07-15 07:20:35 51°14.046 2°55.475 20.804318 4.672361 34.396134 -0.646411
2004-07-15 07:20:40 51°14.058 2°55.468 20.804918 4.672255 34.395848 -0.646411
2004-07-15 07:20:44 51°14.067 2°55.462 20.805478 4.672255 34.395263 -0.646411
2004-07-15 07:20:49 51°14.079 2°55.454 20.805478 4.672255 34.395263 -0.646411
2004-07-15 07:20:55 51°14.094 2°55.443 20.806158 4.672361 34.396134 -0.646411
2004-07-15 07:20:59 51°14.104 2°55.436 20.806838 4.672361 34.396134 -0.646411
2004-07-15 07:21:03 51°14.114 2°55.428 20.807598 4.672361 34.395549 -0.646411
2004-07-15 07:21:09 51°14.13 2°55.416 20.808198 4.672466 34.397004 -0.646411
2004-07-15 07:21:15 51°14.145 2°55.402 20.808958 4.672361 34.395549 -0.646411
2004-07-15 07:21:20 51°14.159 2°55.391 20.808958 4.672361 34.395549 -0.646411
2004-07-15 07:21:25 51°14.172 2°55.379 20.809678 4.672466 34.39642 -0.646411
2004-07-15 07:21:29 51°14.182 2°55.369 20.810358 4.672361 34.396134 -0.612702
2004-07-15 07:21:35 51°14.196 2°55.352 20.811198 4.672572 34.39729 -0.646411
2004-07-15 07:21:39 51°14.206 2°55.341 20.811879 4.672466 34.397004 -0.680121
2004-07-15 07:21:45 51°14.22 2°55.321 20.812479 4.672466 34.397004 -0.680121
2004-07-15 07:21:51 51°14.233 2°55.302 20.812479 4.672466 34.397004 -0.680121
2004-07-15 07:21:55 51°14.241 2°55.288 20.813319 4.672466 34.395835 -0.612702
2004-07-15 07:21:59 51°14.25 2°55.274 20.813799 4.672466 34.397004 -0.612702
2004-07-15 07:22:05 51°14.262 2°55.253 20.814479 4.672572 34.39729 -0.646411
2004-07-15 07:22:11 51°14.274 2°55.231 20.814919 4.672466 34.39525 -0.612702
2004-07-15 07:22:15 51°14.283 2°55.216 20.815519 4.672572 34.396705 -0.612702
2004-07-15 07:22:19 51°14.29 2°55.201 20.815519 4.672572 34.396705 -0.612702
2004-07-15 07:22:25 51°14.302 2°55.179 20.816039 4.672572 34.395535 -0.612702
2004-07-15 07:22:29 51°14.31 2°55.163 20.816679 4.672572 34.39612 -0.646411
2004-07-15 07:22:35 51°14.322 2°55.14 20.817279 4.672361 34.394379 -0.646411
2004-07-15 07:22:39 51°14.33 2°55.125 20.817839 4.672677 34.396406 -0.646411
2004-07-15 07:22:45 51°14.342 2°55.103 20.818439 4.672572 34.395535 -0.646411
2004-07-15 07:22:50 51°14.353 2°55.085 20.818439 4.672572 34.395535 -0.646411
2004-07-15 07:22:55 51°14.363 2°55.067 20.819558 4.672572 34.395535 -0.612702
2004-07-15 07:23:00 51°14.374 2°55.048 20.821078 4.672255 34.393509 -0.612702
2004-07-15 07:23:05 51°14.385 2°55.028 20.821558 4.672677 34.396406 -0.612702
2004-07-15 07:23:08 51°14.391 2°55.015 20.818439 4.672572 34.395535 -0.646411
2004-07-15 07:23:15 51°14.406 2°54.984 20.817119 4.672888 34.398732 -0.612702
2004-07-15 07:23:20 51°14.417 2°54.962 20.817119 4.672888 34.398732 -0.612702
2004-07-15 07:23:25 51°14.428 2°54.939 20.817199 4.672888 34.397562 -0.646411
2004-07-15 07:23:30 51°14.439 2°54.917 20.817439 4.672466 34.39408 -0.646411
2004-07-15 07:23:35 51°14.451 2°54.895 20.817679 4.672677 34.395821 -0.646411
2004-07-15 07:23:40 51°14.463 2°54.873 20.817919 4.672783 34.396107 -0.646411
2004-07-15 07:23:45 51°14.475 2°54.851 20.817959 4.672572 34.394951 -0.680121
2004-07-15 07:23:48 51°14.482 2°54.838 20.817959 4.672572 34.394951 -0.680121
2004-07-15 07:23:55 51°14.499 2°54.807 20.818439 4.672572 34.394951 -0.646411
2004-07-15 07:24:00 51°14.511 2°54.785 20.818879 4.672994 34.399603 -0.680121
2004-07-15 07:24:05 51°14.522 2°54.762 20.819958 4.672572 34.395535 -0.646411
2004-07-15 07:24:09 51°14.531 2°54.743 20.821398 4.672994 34.399018 -0.646411
2004-07-15 07:24:15 51°14.543 2°54.713 20.822598 4.672677 34.396406 -0.646411
2004-07-15 07:24:19 51°14.55 2°54.693 20.822598 4.672677 34.396406 -0.646411
2004-07-15 07:24:25 51°14.561 2°54.662 20.823518 4.672888 34.398732 -0.612702
2004-07-15 07:24:28 51°14.566 2°54.646 20.824398 4.672783 34.397277 -0.612702
2004-07-15 07:24:35 51°14.578 2°54.61 20.824958 4.672783 34.397277 -0.612702
2004-07-15 07:24:40 51°14.587 2°54.584 20.825718 4.672783 34.396107 -0.646411
2004-07-15 07:24:45 51°14.595 2°54.557 20.826358 4.672888 34.396977 -0.646411
2004-07-15 07:24:49 51°14.602 2°54.536 20.826358 4.672888 34.396977 -0.646411
2004-07-15 07:24:55 51°14.612 2°54.504 20.827158 4.672888 34.396393 -0.646411
2004-07-15 07:24:59 51°14.619 2°54.483 20.828157 4.672783 34.396107 -0.646411
2004-07-15 07:25:05 51°14.629 2°54.452 20.829077 4.67331 34.39929 -0.612702
2004-07-15 07:25:10 51°14.638 2°54.425 20.829757 4.672888 34.395808 -0.612702
2004-07-15 07:25:15 51°14.647 2°54.399 20.830317 4.672888 34.396393 -0.646411
2004-07-15 07:25:20 51°14.656 2°54.373 20.831237 4.672993 34.396678 -0.646411
2004-07-15 07:25:23 51°14.661 2°54.357 20.831237 4.672993 34.396678 -0.646411
2004-07-15 07:25:29 51°14.672 2°54.326 20.831917 4.673099 34.398134 -0.646411
2004-07-15 07:25:35 51°14.682 2°54.294 20.832637 4.673099 34.398134 -0.646411
2004-07-15 07:25:40 51°14.691 2°54.268 20.833316 4.673099 34.397549 -0.680121
2004-07-15 07:25:45 51°14.7 2°54.242 20.834076 4.672994 34.397848 -0.612702
2004-07-15 07:25:47 51°14.704 2°54.232 20.834076 4.672994 34.397848 -0.612702
2004-07-15 07:25:55 51°14.72 2°54.191 20.834716 4.672994 34.397263 -0.612702
2004-07-15 07:26:00 51°14.728 2°54.165 20.835516 4.672993 34.396678 -0.612702
2004-07-15 07:26:03 51°14.733 2°54.149 20.836276 4.672888 34.395808 -0.646411
2004-07-15 07:26:11 51°14.75 2°54.108 20.837235 4.672888 34.395223 -0.646411
2004-07-15 07:26:15 51°14.758 2°54.087 20.838155 4.672993 34.396678 -0.680121
2004-07-15 07:26:20 51°14.767 2°54.062 20.838155 4.672993 34.396678 -0.680121
2004-07-15 07:26:25 51°14.776 2°54.036 20.838915 4.673099 34.396964 -0.646411
2004-07-15 07:26:31 51°14.786 2°54.005 20.839714 4.67331 34.39812 -0.646411
2004-07-15 07:26:35 51°14.793 2°53.984 20.840514 4.672993 34.396094 -0.646411
2004-07-15 07:26:40 51°14.801 2°53.958 20.840994 4.672677 34.393482 -0.612702
2004-07-15 07:26:45 51°14.81 2°53.932 20.841594 4.673204 34.397835 -0.646411
2004-07-15 07:26:51 51°14.82 2°53.901 20.841594 4.673204 34.397835 -0.646411
2004-07-15 07:26:55 51°14.827 2°53.88 20.842274 4.673204 34.397835 -0.646411
2004-07-15 07:27:00 51°14.835 2°53.853 20.843033 4.673204 34.398419 -0.646411
2004-07-15 07:27:05 51°14.844 2°53.826 20.844033 4.673204 34.397835 -0.646411
2004-07-15 07:27:10 51°14.853 2°53.801 20.844872 4.672993 34.396094 -0.646411
2004-07-15 07:27:15 51°14.863 2°53.775 20.845392 4.673099 34.396379 -0.646411
2004-07-15 07:27:19 51°14.87 2°53.754 20.845392 4.673099 34.396379 -0.646411
2004-07-15 07:27:24 51°14.877 2°53.729 20.846152 4.673099 34.396379 -0.646411
2004-07-15 07:27:30 51°14.886 2°53.697 20.846832 4.67331 34.397535 -0.612702
2004-07-15 07:27:35 51°14.896 2°53.671 20.847671 4.672993 34.395509 -0.646411
2004-07-15 07:27:40 51°14.905 2°53.646 20.848391 4.673099 34.395794 -0.646411
2004-07-15 07:27:43 51°14.911 2°53.63 20.849071 4.67331 34.397535 -0.646411
2004-07-15 07:27:50 51°14.924 2°53.594 20.849071 4.67331 34.397535 -0.646411
2004-07-15 07:27:55 51°14.932 2°53.569 20.84983 4.67331 34.396951 -0.646411
2004-07-15 07:27:59 51°14.939 2°53.548 20.85043 4.673204 34.39725 -0.612702
2004-07-15 07:28:05 51°14.949 2°53.517 20.85119 4.67331 34.396951 -0.646411
2004-07-15 07:28:11 51°14.959 2°53.486 20.851949 4.673204 34.396665 -0.646411
2004-07-15 07:28:15 51°14.966 2°53.465 20.852789 4.673415 34.398406 -0.646411
2004-07-15 07:28:20 51°14.975 2°53.439 20.852789 4.673415 34.398406 -0.646411
2004-07-15 07:28:25 51°14.983 2°53.412 20.853468 4.673099 34.39521 -0.646411
2004-07-15 07:28:29 51°14.99 2°53.391 20.853948 4.67331 34.397535 -0.646411
2004-07-15 07:28:35 51°15.001 2°53.36 20.854708 4.673415 34.397821 -0.612702
2004-07-15 07:28:40 51°15.009 2°53.334 20.855627 4.67331 34.396951 -0.612702
2004-07-15 07:28:45 51°15.018 2°53.308 20.856427 4.673521 34.398692 -0.612702
2004-07-15 07:28:50 51°15.027 2°53.281 20.856427 4.673521 34.398692 -0.612702
2004-07-15 07:28:53 51°15.032 2°53.266 20.857306 4.673099 34.394625 -0.612702
2004-07-15 07:29:00 51°15.044 2°53.229 20.857786 4.673415 34.397236 -0.680121
2004-07-15 07:29:05 51°15.053 2°53.203 20.858386 4.673204 34.395495 -0.646411
2004-07-15 07:29:10 51°15.061 2°53.177 20.858585 4.673521 34.397522 -0.646411
2004-07-15 07:29:15 51°15.07 2°53.151 20.859345 4.673521 34.398107 -0.646411
2004-07-15 07:29:20 51°15.079 2°53.125 20.860344 4.67331 34.395781 -0.646411
2004-07-15 07:29:25 51°15.088 2°53.099 20.860344 4.67331 34.395781 -0.646411
2004-07-15 07:29:28 51°15.093 2°53.083 20.860984 4.673626 34.398392 -0.646411
2004-07-15 07:29:35 51°15.105 2°53.046 20.861424 4.673415 34.396652 -0.612702
2004-07-15 07:29:40 51°15.114 2°53.02 20.862063 4.673521 34.398107 -0.646411
2004-07-15 07:29:45 51°15.122 2°52.994 20.862783 4.67331 34.396366 -0.646411
2004-07-15 07:29:49 51°15.129 2°52.973 20.862783 4.67331 34.396366 -0.646411
2004-07-15 07:29:55 51°15.14 2°52.941 20.863342 4.673521 34.398107 -0.646411
2004-07-15 07:30:00 51°15.148 2°52.915 20.864102 4.673521 34.397522 -0.646411
2004-07-15 07:30:05 51°15.157 2°52.889 20.864941 4.673415 34.396652 -0.612702
2004-07-15 07:30:09 51°15.164 2°52.867 20.865701 4.673626 34.398392 -0.646411
2004-07-15 07:30:15 51°15.173 2°52.835 20.86654 4.67331 34.395781 -0.646411
2004-07-15 07:30:19 51°15.179 2°52.812 20.86654 4.67331 34.395781 -0.646411
2004-07-15 07:30:25 51°15.186 2°52.779 20.86702 4.673521 34.398107 -0.680121
2004-07-15 07:30:29 51°15.191 2°52.756 20.867739 4.673732 34.400433 -0.646411
2004-07-15 07:30:35 51°15.198 2°52.722 20.868499 4.673415 34.396067 -0.612702
2004-07-15 07:30:40 51°15.203 2°52.693 20.869058 4.673837 34.399549 -0.646411
2004-07-15 07:30:44 51°15.208 2°52.67 20.869898 4.673415 34.396067 -0.612702
2004-07-15 07:30:51 51°15.215 2°52.629 20.869898 4.673415 34.396067 -0.612702
2004-07-15 07:30:55 51°15.219 2°52.606 20.870657 4.673415 34.395482 -0.680121
2004-07-15 07:31:00 51°15.225 2°52.577 20.871416 4.673626 34.397223 -0.680121
2004-07-15 07:31:05 51°15.23 2°52.548 20.872056 4.673521 34.396353 -0.646411
2004-07-15 07:31:09 51°15.234 2°52.525 20.872655 4.673626 34.397223 -0.646411
2004-07-15 07:31:15 51°15.24 2°52.49 20.873575 4.673626 34.397223 -0.646411
2004-07-15 07:31:19 51°15.245 2°52.467 20.873575 4.673626 34.397223 -0.646411
2004-07-15 07:31:24 51°15.25 2°52.438 20.874574 4.67331 34.394612 -0.646411
2004-07-15 07:31:29 51°15.255 2°52.409 20.875173 4.673732 34.398093 -0.612702
2004-07-15 07:31:34 51°15.26 2°52.38 20.876173 4.673521 34.395768 -0.612702
2004-07-15 07:31:40 51°15.266 2°52.345 20.877172 4.673521 34.395768 -0.612702
2004-07-15 07:31:43 51°15.269 2°52.327 20.878051 4.673732 34.397509 -0.646411
2004-07-15 07:31:50 51°15.275 2°52.286 20.87889 4.673626 34.397223 -0.646411
2004-07-15 07:31:55 51°15.279 2°52.256 20.87889 4.673626 34.397223 -0.646411
2004-07-15 07:31:59 51°15.281 2°52.232 20.87953 4.673626 34.397808 -0.646411
2004-07-15 07:32:05 51°15.285 2°52.196 20.880449 4.673837 34.398379 -0.646411
2004-07-15 07:32:08 51°15.286 2°52.177 20.881528 4.673732 34.397509 -0.646411
2004-07-15 07:32:15 51°15.29 2°52.135 20.882367 4.673626 34.396054 -0.646411
2004-07-15 07:32:19 51°15.292 2°52.111 20.882367 4.673626 34.396054 -0.646411
2004-07-15 07:32:24 51°15.294 2°52.08 20.882966 4.673732 34.396924 -0.646411
2004-07-15 07:32:30 51°15.298 2°52.044 20.883646 4.673732 34.396924 -0.680121
2004-07-15 07:32:35 51°15.3 2°52.013 20.884245 4.673732 34.396924 -0.646411
2004-07-15 07:32:40 51°15.303 2°51.983 20.885084 4.673626 34.396054 -0.646411
2004-07-15 07:32:44 51°15.305 2°51.958 20.886163 4.673732 34.396339 -0.646411
2004-07-15 07:32:49 51°15.307 2°51.928 20.887282 4.673626 34.396638 -0.680121
2004-07-15 07:32:55 51°15.308 2°51.891 20.887282 4.673626 34.396638 -0.680121
2004-07-15 07:33:00 51°15.308 2°51.86 20.888361 4.673732 34.397509 -0.612702
2004-07-15 07:33:05 51°15.308 2°51.829 20.8892 4.673732 34.398093 -0.646411
2004-07-15 07:33:11 51°15.307 2°51.792 20.889919 4.673837 34.397794 -0.646411
2004-07-15 07:33:15 51°15.306 2°51.767 20.890639 4.673732 34.396924 -0.680121
2004-07-15 07:33:20 51°15.305 2°51.736 20.890639 4.673732 34.396924 -0.680121
2004-07-15 07:33:25 51°15.304 2°51.705 20.891558 4.673837 34.397794 -0.612702
2004-07-15 07:33:29 51°15.303 2°51.68 20.892397 4.673732 34.395755 -0.646411
2004-07-15 07:33:35 51°15.302 2°51.643 20.893116 4.673732 34.395755 -0.646411
2004-07-15 07:33:40 51°15.3 2°51.612 20.893955 4.673732 34.395755 -0.612702
2004-07-15 07:33:45 51°15.297 2°51.582 20.894794 4.673732 34.395755 -0.646411
2004-07-15 07:33:51 51°15.293 2°51.545 20.894794 4.673732 34.395755 -0.646411
2004-07-15 07:33:55 51°15.29 2°51.521 20.895713 4.673943 34.39808 -0.646411
2004-07-15 07:34:00 51°15.286 2°51.49 20.896472 4.673732 34.396339 -0.612702
2004-07-15 07:34:05 51°15.282 2°51.46 20.897311 4.673943 34.397495 -0.646411
2004-07-15 07:34:09 51°15.279 2°51.435 20.897831 4.673943 34.397495 -0.646411
2004-07-15 07:34:15 51°15.274 2°51.399 20.89827 4.673837 34.396625 -0.646411
2004-07-15 07:34:20 51°15.269 2°51.368 20.89827 4.673837 34.396625 -0.646411
2004-07-15 07:34:25 51°15.265 2°51.338 20.898829 4.673837 34.396625 -0.680121
2004-07-15 07:34:30 51°15.261 2°51.307 20.899509 4.673837 34.396625 -0.646411
2004-07-15 07:34:35 51°15.256 2°51.277 20.900587 4.673943 34.396911 -0.646411
2004-07-15 07:34:40 51°15.252 2°51.246 20.901866 4.673943 34.396911 -0.612702
2004-07-15 07:34:44 51°15.248 2°51.222 20.903104 4.673626 34.3943 -0.612702
2004-07-15 07:34:49 51°15.244 2°51.191 20.903104 4.673626 34.3943 -0.612702
2004-07-15 07:34:55 51°15.239 2°51.154 20.904223 4.673837 34.395456 -0.646411
2004-07-15 07:35:00 51°15.235 2°51.124 20.905062 4.673732 34.394001 -0.612702
2004-07-15 07:35:05 51°15.232 2°51.093 20.905861 4.673943 34.396911 -0.680121
2004-07-15 07:35:10 51°15.229 2°51.062 20.90678 4.674048 34.397196 -0.646411
2004-07-15 07:35:15 51°15.226 2°51.031 20.907658 4.673837 34.395456 -0.646411
2004-07-15 07:35:20 51°15.223 2°51 20.907658 4.673837 34.395456 -0.646411
2004-07-15 07:35:25 51°15.219 2°50.97 20.908577 4.673943 34.396911 -0.646411
2004-07-15 07:35:29 51°15.217 2°50.945 20.909336 4.673943 34.395741 -0.612702
2004-07-15 07:35:35 51°15.213 2°50.908 20.910255 4.673837 34.39604 -0.612702
2004-07-15 07:35:40 51°15.21 2°50.877 20.910894 4.673943 34.396911 -0.646411
2004-07-15 07:35:44 51°15.207 2°50.853 20.911933 4.673626 34.3943 -0.646411
2004-07-15 07:35:50 51°15.203 2°50.816 20.911933 4.673626 34.3943 -0.646411
2004-07-15 07:35:55 51°15.2 2°50.785 20.912852 4.673943 34.396326 -0.646411
2004-07-15 07:36:00 51°15.197 2°50.754 20.91361 4.673837 34.39604 -0.646411
2004-07-15 07:36:05 51°15.194 2°50.723 20.914329 4.674048 34.397196 -0.646411
2004-07-15 07:36:11 51°15.191 2°50.686 20.914929 4.673732 34.394585 -0.612702
2004-07-15 07:36:15 51°15.189 2°50.661 20.915528 4.673943 34.395741 -0.646411
2004-07-15 07:36:20 51°15.187 2°50.631 20.916207 4.674154 34.398067 -0.646411
2004-07-15 07:36:25 51°15.184 2°50.6 20.916207 4.674154 34.398067 -0.646411
2004-07-15 07:36:31 51°15.181 2°50.563 20.917046 4.673943 34.396326 -0.612702
2004-07-15 07:36:35 51°15.178 2°50.538 20.917884 4.673837 34.39604 -0.646411
2004-07-15 07:36:39 51°15.176 2°50.514 20.918643 4.673943 34.396326 -0.646411
2004-07-15 07:36:45 51°15.173 2°50.477 20.919362 4.673837 34.39604 -0.646411
2004-07-15 07:36:51 51°15.169 2°50.44 20.919362 4.673837 34.39604 -0.646411
2004-07-15 07:36:55 51°15.167 2°50.415 20.920241 4.673837 34.394871 -0.612702
2004-07-15 07:37:00 51°15.164 2°50.385 20.92092 4.673943 34.395741 -0.612702
2004-07-15 07:37:05 51°15.161 2°50.354 20.921639 4.673943 34.395741 -0.646411
2004-07-15 07:37:09 51°15.159 2°50.329 20.922597 4.673943 34.395741 -0.646411
2004-07-15 07:37:12 51°15.157 2°50.311 20.923436 4.673943 34.395741 -0.646411
2004-07-15 07:37:19 51°15.153 2°50.268 20.923436 4.673943 34.395741 -0.646411
2004-07-15 07:37:25 51°15.15 2°50.231 20.924195 4.674048 34.396612 -0.646411
2004-07-15 07:37:30 51°15.147 2°50.2 20.924994 4.673943 34.395157 -0.612702
2004-07-15 07:37:35 51°15.145 2°50.169 20.925593 4.674259 34.397768 -0.612702
2004-07-15 07:37:39 51°15.143 2°50.145 20.926511 4.674259 34.398352 -0.612702
2004-07-15 07:37:45 51°15.139 2°50.108 20.92751 4.673837 34.394286 -0.646411
2004-07-15 07:37:49 51°15.137 2°50.083 20.92751 4.673837 34.394286 -0.646411
2004-07-15 07:37:55 51°15.134 2°50.047 20.928348 4.673837 34.394286 -0.646411
2004-07-15 07:38:00 51°15.131 2°50.016 20.929107 4.674048 34.396027 -0.680121
2004-07-15 07:38:05 51°15.127 2°49.986 20.929706 4.673837 34.393702 -0.646411
2004-07-15 07:38:09 51°15.125 2°49.962 20.930545 4.674154 34.396313 -0.646411
2004-07-15 07:38:15 51°15.122 2°49.925 20.931384 4.673837 34.394286 -0.612702
2004-07-15 07:38:20 51°15.119 2°49.894 20.932302 4.673943 34.395741 -0.646411
2004-07-15 07:38:25 51°15.116 2°49.863 20.932302 4.673943 34.395741 -0.646411
2004-07-15 07:38:30 51°15.113 2°49.833 20.932901 4.673837 34.393702 -0.612702
2004-07-15 07:38:35 51°15.111 2°49.802 20.93366 4.674048 34.395442 -0.646411
2004-07-15 07:38:40 51°15.108 2°49.772 20.934538 4.673837 34.394286 -0.646411
2004-07-15 07:38:45 51°15.106 2°49.741 20.935537 4.673837 34.394286 -0.646411
2004-07-15 07:38:49 51°15.103 2°49.716 20.935537 4.673837 34.394286 -0.646411
2004-07-15 07:38:55 51°15.1 2°49.679 20.936415 4.674048 34.395442 -0.646411
2004-07-15 07:39:00 51°15.098 2°49.649 20.937094 4.674154 34.396313 -0.646411
2004-07-15 07:39:05 51°15.095 2°49.618 20.937813 4.673943 34.395157 -0.646411
2004-07-15 07:39:11 51°15.092 2°49.581 20.938651 4.674048 34.395442 -0.646411
2004-07-15 07:39:15 51°15.09 2°49.556 20.93941 4.674048 34.395442 -0.646411
2004-07-15 07:39:20 51°15.087 2°49.526 20.93941 4.674048 34.395442 -0.646411
2004-07-15 07:39:25 51°15.084 2°49.495 20.940248 4.673943 34.394572 -0.646411
2004-07-15 07:39:30 51°15.081 2°49.465 20.940688 4.674154 34.395728 -0.612702
2004-07-15 07:39:35 51°15.078 2°49.434 20.941366 4.674048 34.395442 -0.646411
2004-07-15 07:39:39 51°15.076 2°49.41 20.942005 4.673943 34.394572 -0.646411
2004-07-15 07:39:45 51°15.072 2°49.373 20.942924 4.674154 34.395728 -0.646411
2004-07-15 07:39:49 51°15.07 2°49.348 20.942924 4.674154 34.395728 -0.646411
2004-07-15 07:39:55 51°15.066 2°49.311 20.943682 4.674048 34.394858 -0.646411
2004-07-15 07:39:59 51°15.063 2°49.287 20.944441 4.673943 34.393987 -0.680121
2004-07-15 07:40:04 51°15.06 2°49.256 20.94512 4.674154 34.395728 -0.646411
2004-07-15 07:40:10 51°15.056 2°49.22 20.945798 4.674154 34.395728 -0.646411
2004-07-15 07:40:15 51°15.053 2°49.189 20.946717 4.673943 34.393987 -0.646411
2004-07-15 07:40:20 51°15.049 2°49.158 20.946717 4.673943 34.393987 -0.646411
2004-07-15 07:40:25 51°15.046 2°49.128 20.947835 4.674048 34.394858 -0.646411
2004-07-15 07:40:29 51°15.044 2°49.103 20.948593 4.673837 34.393702 -0.612702
2004-07-15 07:40:35 51°15.04 2°49.067 20.949072 4.674154 34.395143 -0.612702
2004-07-15 07:40:39 51°15.037 2°49.042 20.949791 4.674048 34.394858 -0.646411
2004-07-15 07:40:45 51°15.033 2°49.005 20.950749 4.674154 34.395143 -0.646411
2004-07-15 07:40:49 51°15.031 2°48.981 20.951747 4.673943 34.393403 -0.612702
2004-07-15 07:40:55 51°15.027 2°48.944 20.951747 4.673943 34.393403 -0.612702
2004-07-15 07:40:59 51°15.025 2°48.919 20.952506 4.674154 34.395143 -0.646411
2004-07-15 07:41:04 51°15.022 2°48.889 20.953224 4.673943 34.393987 -0.646411
2004-07-15 07:41:10 51°15.018 2°48.852 20.953983 4.674048 34.394858 -0.646411
2004-07-15 07:41:15 51°15.015 2°48.822 20.954821 4.673943 34.393403 -0.680121
2004-07-15 07:41:20 51°15.012 2°48.791 20.954821 4.673943 34.393403 -0.680121
2004-07-15 07:41:25 51°15.008 2°48.761 20.955739 4.674154 34.395143 -0.646411
2004-07-15 07:41:29 51°15.006 2°48.736 20.956737 4.673943 34.393987 -0.646411
2004-07-15 07:41:35 51°15.002 2°48.699 20.957496 4.674048 34.393689 -0.646411
2004-07-15 07:41:39 51°15 2°48.675 20.958294 4.674154 34.395143 -0.612702
2004-07-15 07:41:45 51°14.996 2°48.638 20.959452 4.674048 34.394273 -0.612702
2004-07-15 07:41:49 51°14.994 2°48.614 20.959452 4.674048 34.394273 -0.612702
2004-07-15 07:41:55 51°14.991 2°48.577 20.96045 4.674048 34.394273 -0.646411
2004-07-15 07:41:59 51°14.988 2°48.553 20.961408 4.674048 34.394273 -0.646411
2004-07-15 07:42:04 51°14.985 2°48.523 20.962166 4.674154 34.395143 -0.680121
2004-07-15 07:42:10 51°14.981 2°48.486 20.963084 4.674048 34.394273 -0.612702
2004-07-15 07:42:15 51°14.978 2°48.456 20.963883 4.674154 34.395143 -0.612702
2004-07-15 07:42:20 51°14.975 2°48.425 20.963883 4.674154 34.395143 -0.612702
2004-07-15 07:42:25 51°14.971 2°48.395 20.964601 4.673943 34.393403 -0.612702
2004-07-15 07:42:29 51°14.968 2°48.371 20.9654 4.674259 34.395429 -0.612702
2004-07-15 07:42:35 51°14.965 2°48.334 20.966198 4.673943 34.392818 -0.612702
2004-07-15 07:42:39 51°14.962 2°48.31 20.966916 4.674048 34.393689 -0.646411
2004-07-15 07:42:45 51°14.959 2°48.273 20.967675 4.673943 34.392818 -0.646411
2004-07-15 07:42:49 51°14.956 2°48.249 20.967675 4.673943 34.392818 -0.646411
2004-07-15 07:42:55 51°14.952 2°48.213 20.968673 4.674048 34.394273 -0.612702
2004-07-15 07:42:59 51°14.949 2°48.189 20.969511 4.674048 34.393689 -0.646411
2004-07-15 07:43:04 51°14.946 2°48.159 20.970588 4.674048 34.394273 -0.612702
2004-07-15 07:43:10 51°14.942 2°48.122 20.971786 4.673837 34.391948 -0.646411
2004-07-15 07:43:15 51°14.939 2°48.092 20.972863 4.674154 34.395143 -0.646411
2004-07-15 07:43:20 51°14.936 2°48.062 20.973702 4.674048 34.393104 -0.646411
2004-07-15 07:43:25 51°14.932 2°48.032 20.973702 4.674048 34.393104 -0.646411
2004-07-15 07:43:29 51°14.93 2°48.007 20.974699 4.673943 34.392818 -0.646411
2004-07-15 07:43:35 51°14.926 2°47.971 20.975378 4.673943 34.393403 -0.646411
2004-07-15 07:43:39 51°14.924 2°47.947 20.976136 4.674154 34.394559 -0.646411
2004-07-15 07:43:45 51°14.92 2°47.911 20.976894 4.674048 34.393689 -0.646411
2004-07-15 07:43:49 51°14.917 2°47.887 20.977812 4.673943 34.392818 -0.646411
2004-07-15 07:43:55 51°14.913 2°47.851 20.977812 4.673943 34.392818 -0.646411
2004-07-15 07:43:59 51°14.911 2°47.826 20.97881 4.673943 34.393403 -0.646411
2004-07-15 07:44:04 51°14.908 2°47.796 20.979728 4.674048 34.393689 -0.646411
2004-07-15 07:44:10 51°14.904 2°47.76 20.980566 4.673943 34.393403 -0.680121
2004-07-15 07:44:15 51°14.901 2°47.73 20.981643 4.673943 34.392234 -0.646411
2004-07-15 07:44:20 51°14.897 2°47.7 20.982641 4.674048 34.393104 -0.646411
2004-07-15 07:44:25 51°14.894 2°47.67 20.982641 4.674048 34.393104 -0.646411
2004-07-15 07:44:29 51°14.892 2°47.646 20.983479 4.673943 34.392818 -0.646411
2004-07-15 07:44:35 51°14.888 2°47.611 20.984556 4.674048 34.393689 -0.646411
2004-07-15 07:44:40 51°14.885 2°47.581 20.985514 4.673943 34.392818 -0.680121
2004-07-15 07:44:45 51°14.881 2°47.551 20.986312 4.673943 34.392818 -0.646411
2004-07-15 07:44:51 51°14.878 2°47.515 20.986312 4.673943 34.392818 -0.646411
2004-07-15 07:44:55 51°14.876 2°47.491 20.98715 4.673943 34.392234 -0.646411
2004-07-15 07:45:00 51°14.873 2°47.461 20.988068 4.674154 34.393974 -0.646411
2004-07-15 07:45:05 51°14.87 2°47.431 20.989026 4.673943 34.392818 -0.646411
2004-07-15 07:45:10 51°14.867 2°47.401 20.989983 4.674048 34.393689 -0.646411
2004-07-15 07:45:15 51°14.864 2°47.371 20.990941 4.673943 34.392818 -0.612702
2004-07-15 07:45:20 51°14.861 2°47.341 20.990941 4.673943 34.392818 -0.612702
2004-07-15 07:45:25 51°14.858 2°47.312 20.991659 4.673943 34.392234 -0.646411
2004-07-15 07:45:29 51°14.855 2°47.288 20.992537 4.673837 34.391948 -0.646411
2004-07-15 07:45:35 51°14.852 2°47.252 20.993415 4.674048 34.393689 -0.612702
2004-07-15 07:45:40 51°14.849 2°47.222 20.994292 4.674048 34.393104 -0.680121
2004-07-15 07:45:45 51°14.846 2°47.193 20.99525 4.674048 34.393689 -0.646411
2004-07-15 07:45:49 51°14.844 2°47.169 20.99525 4.674048 34.393689 -0.646411
2004-07-15 07:45:55 51°14.84 2°47.133 20.996247 4.673943 34.392234 -0.646411
2004-07-15 07:45:59 51°14.838 2°47.109 20.997165 4.674048 34.393689 -0.646411
2004-07-15 07:46:04 51°14.835 2°47.08 20.998043 4.674048 34.393689 -0.612702
2004-07-15 07:46:09 51°14.832 2°47.05 20.99912 4.673943 34.392818 -0.646411
2004-07-15 07:46:15 51°14.828 2°47.014 20.999958 4.673837 34.391948 -0.646411
2004-07-15 07:46:19 51°14.826 2°46.99 20.999958 4.673837 34.391948 -0.646411
2004-07-15 07:46:25 51°14.822 2°46.955 21.000876 4.673732 34.390493 -0.612702
2004-07-15 07:46:30 51°14.819 2°46.925 21.001953 4.674048 34.39252 -0.646411
2004-07-15 07:46:35 51°14.815 2°46.895 21.00311 4.673943 34.392234 -0.680121
2004-07-15 07:46:40 51°14.813 2°46.866 21.004107 4.673943 34.392234 -0.680121
2004-07-15 07:46:45 51°14.809 2°46.836 21.005025 4.673626 34.389623 -0.646411
2004-07-15 07:46:50 51°14.806 2°46.807 21.006022 4.673943 34.392818 -0.680121
2004-07-15 07:46:55 51°14.803 2°46.777 21.006022 4.673943 34.392818 -0.680121
2004-07-15 07:47:00 51°14.8 2°46.747 21.006979 4.674048 34.393689 -0.646411
2004-07-15 07:47:05 51°14.797 2°46.718 21.007897 4.673943 34.392234 -0.646411
2004-07-15 07:47:11 51°14.794 2°46.682 21.008894 4.673837 34.390779 -0.646411
2004-07-15 07:47:15 51°14.791 2°46.659 21.009971 4.673732 34.390493 -0.680121
2004-07-15 07:47:20 51°14.788 2°46.629 21.009971 4.673732 34.390493 -0.680121
2004-07-15 07:47:25 51°14.785 2°46.6 21.011128 4.674048 34.393104 -0.646411
2004-07-15 07:47:29 51°14.783 2°46.576 21.012404 4.673837 34.391364 -0.646411
2004-07-15 07:47:35 51°14.779 2°46.541 21.013242 4.673943 34.392234 -0.680121
2004-07-15 07:47:40 51°14.776 2°46.511 21.014319 4.673732 34.390493 -0.646411
2004-07-15 07:47:45 51°14.773 2°46.482 21.015236 4.673943 34.392818 -0.646411
2004-07-15 07:47:51 51°14.77 2°46.446 21.016553 4.673943 34.391649 -0.680121
2004-07-15 07:47:55 51°14.768 2°46.423 21.016553 4.673943 34.391649 -0.680121
2004-07-15 07:48:00 51°14.766 2°46.393 21.01747 4.673943 34.392234 -0.646411
2004-07-15 07:48:05 51°14.763 2°46.363 21.018667 4.673837 34.390779 -0.646411
2004-07-15 07:48:10 51°14.76 2°46.334 21.019903 4.673943 34.391649 -0.646411
2004-07-15 07:48:15 51°14.758 2°46.304 21.02106 4.673626 34.389623 -0.680121
2004-07-15 07:48:20 51°14.755 2°46.275 21.02106 4.673626 34.389623 -0.680121
2004-07-15 07:48:25 51°14.752 2°46.245 21.021937 4.673837 34.391364 -0.646411
2004-07-15 07:48:31 51°14.748 2°46.21 21.022854 4.673943 34.392234 -0.646411
2004-07-15 07:48:35 51°14.746 2°46.186 21.024171 4.673943 34.392234 -0.680121
2004-07-15 07:48:40 51°14.742 2°46.157 21.025088 4.673943 34.392234 -0.646411
2004-07-15 07:48:45 51°14.739 2°46.127 21.026165 4.673943 34.391065 -0.646411
2004-07-15 07:48:48 51°14.737 2°46.11 21.026165 4.673943 34.391065 -0.646411
2004-07-15 07:48:55 51°14.733 2°46.068 21.027162 4.673732 34.389909 -0.646411
2004-07-15 07:49:00 51°14.729 2°46.039 21.028278 4.673943 34.392234 -0.646411
2004-07-15 07:49:05 51°14.727 2°46.009 21.029515 4.673943 34.392234 -0.680121
2004-07-15 07:49:10 51°14.724 2°45.979 21.030272 4.673943 34.391649 -0.612702
2004-07-15 07:49:15 51°14.721 2°45.95 21.03103 4.673732 34.389909 -0.612702
2004-07-15 07:49:19 51°14.719 2°45.926 21.03103 4.673732 34.389909 -0.612702
2004-07-15 07:49:25 51°14.716 2°45.89 21.031947 4.673837 34.390779 -0.680121
2004-07-15 07:49:31 51°14.713 2°45.854 21.033343 4.673837 34.390779 -0.680121
2004-07-15 07:49:35 51°14.711 2°45.83 21.034619 4.673837 34.390779 -0.680121
2004-07-15 07:49:40 51°14.709 2°45.8 21.035935 4.673943 34.391649 -0.646411
2004-07-15 07:49:45 51°14.705 2°45.77 21.036932 4.673837 34.391364 -0.680121
2004-07-15 07:49:50 51°14.702 2°45.74 21.036932 4.673837 34.391364 -0.680121
2004-07-15 07:49:55 51°14.699 2°45.71 21.037849 4.673943 34.391649 -0.646411
2004-07-15 07:49:59 51°14.697 2°45.686 21.038607 4.673943 34.392234 -0.646411
2004-07-15 07:50:05 51°14.693 2°45.65 21.039364 4.673837 34.390779 -0.646411
2004-07-15 07:50:09 51°14.69 2°45.626 21.040281 4.673732 34.391078 -0.612702
2004-07-15 07:50:15 51°14.686 2°45.589 21.041278 4.673732 34.389909 -0.646411
2004-07-15 07:50:19 51°14.683 2°45.565 21.042036 4.673837 34.391364 -0.646411
2004-07-15 07:50:25 51°14.679 2°45.529 21.042036 4.673837 34.391364 -0.646411
2004-07-15 07:50:31 51°14.676 2°45.492 21.042953 4.673732 34.389909 -0.646411
2004-07-15 07:50:35 51°14.673 2°45.468 21.04379 4.673837 34.38961 -0.646411
2004-07-15 07:50:39 51°14.671 2°45.444 21.044866 4.673837 34.390779 -0.646411
2004-07-15 07:50:45 51°14.667 2°45.408 21.045863 4.673732 34.390493 -0.646411
2004-07-15 07:50:49 51°14.664 2°45.383 21.04686 4.673943 34.391649 -0.680121
2004-07-15 07:50:55 51°14.66 2°45.347 21.04686 4.673943 34.391649 -0.680121
2004-07-15 07:50:59 51°14.658 2°45.323 21.047418 4.673943 34.392234 -0.680121
2004-07-15 07:51:05 51°14.654 2°45.287 21.048056 4.673732 34.389909 -0.646411
2004-07-15 07:51:08 51°14.652 2°45.269 21.049053 4.673837 34.390779 -0.646411
2004-07-15 07:51:15 51°14.647 2°45.226 21.050129 4.673626 34.389623 -0.646411
2004-07-15 07:51:19 51°14.644 2°45.202 21.050129 4.673626 34.389623 -0.646411
2004-07-15 07:51:25 51°14.64 2°45.166 21.050887 4.673837 34.390779 -0.646411
2004-07-15 07:51:30 51°14.637 2°45.136 21.051644 4.673837 34.390779 -0.646411
2004-07-15 07:51:35 51°14.634 2°45.105 21.0528 4.673943 34.391649 -0.646411
2004-07-15 07:51:40 51°14.63 2°45.075 21.053797 4.673732 34.389909 -0.646411
2004-07-15 07:51:45 51°14.627 2°45.045 21.054674 4.673837 34.390195 -0.612702
2004-07-15 07:51:51 51°14.623 2°45.009 21.055591 4.673626 34.389039 -0.646411
2004-07-15 07:51:55 51°14.62 2°44.985 21.055591 4.673626 34.389039 -0.646411
2004-07-15 07:52:00 51°14.617 2°44.954 21.056627 4.673837 34.38961 -0.612702
2004-07-15 07:52:05 51°14.614 2°44.924 21.057425 4.673732 34.389909 -0.680121
2004-07-15 07:52:09 51°14.612 2°44.9 21.058302 4.673732 34.389909 -0.680121
2004-07-15 07:52:15 51°14.608 2°44.864 21.059498 4.673837 34.390779 -0.646411
2004-07-15 07:52:20 51°14.605 2°44.833 21.059498 4.673837 34.390779 -0.646411
2004-07-15 07:52:25 51°14.601 2°44.803 21.060454 4.673732 34.389909 -0.646411
2004-07-15 07:52:31 51°14.598 2°44.766 21.061291 4.673732 34.389909 -0.646411
2004-07-15 07:52:35 51°14.595 2°44.742 21.061929 4.673732 34.389909 -0.646411
2004-07-15 07:52:40 51°14.592 2°44.712 21.063085 4.673732 34.389324 -0.646411
2004-07-15 07:52:45 51°14.588 2°44.682 21.064082 4.673943 34.391649 -0.646411
2004-07-15 07:52:49 51°14.586 2°44.658 21.064082 4.673943 34.391649 -0.646411
2004-07-15 07:52:55 51°14.582 2°44.621 21.065078 4.673626 34.388454 -0.646411
2004-07-15 07:53:00 51°14.578 2°44.591 21.065875 4.673732 34.389324 -0.646411
2004-07-15 07:53:05 51°14.575 2°44.56 21.066672 4.673626 34.388454 -0.646411
2004-07-15 07:53:11 51°14.571 2°44.524 21.067589 4.673626 34.388454 -0.646411
2004-07-15 07:53:15 51°14.569 2°44.5 21.068625 4.673943 34.39048 -0.646411
2004-07-15 07:53:20 51°14.566 2°44.469 21.069741 4.673732 34.389324 -0.646411
2004-07-15 07:53:25 51°14.562 2°44.439 21.069741 4.673732 34.389324 -0.646411
2004-07-15 07:53:30 51°14.559 2°44.409 21.070778 4.673626 34.389039 -0.646411
2004-07-15 07:53:35 51°14.556 2°44.379 21.071894 4.673837 34.390195 -0.646411
2004-07-15 07:53:39 51°14.553 2°44.354 21.07289 4.673732 34.38874 -0.646411
2004-07-15 07:53:45 51°14.549 2°44.318 21.074165 4.673732 34.38874 -0.646411
2004-07-15 07:53:49 51°14.547 2°44.294 21.074165 4.673732 34.38874 -0.646411
2004-07-15 07:53:55 51°14.543 2°44.257 21.075162 4.673837 34.38961 -0.646411
2004-07-15 07:53:59 51°14.54 2°44.233 21.076357 4.673732 34.389324 -0.680121
2004-07-15 07:54:04 51°14.537 2°44.203 21.077433 4.673626 34.388454 -0.646411
2004-07-15 07:54:10 51°14.533 2°44.166 21.07827 4.673732 34.38874 -0.680121
2004-07-15 07:54:15 51°14.529 2°44.136 21.079107 4.673837 34.390195 -0.646411
2004-07-15 07:54:20 51°14.527 2°44.106 21.080263 4.673732 34.38874 -0.646411
2004-07-15 07:54:25 51°14.523 2°44.075 21.080263 4.673732 34.38874 -0.646411
2004-07-15 07:54:30 51°14.52 2°44.045 21.0811 4.673732 34.38874 -0.680121
2004-07-15 07:54:35 51°14.518 2°44.015 21.081937 4.673521 34.388168 -0.612702
2004-07-15 07:54:40 51°14.516 2°43.984 21.083092 4.673837 34.389026 -0.680121
2004-07-15 07:54:45 51°14.514 2°43.954 21.084248 4.673626 34.38787 -0.680121
2004-07-15 07:54:51 51°14.513 2°43.917 21.085244 4.673943 34.389896 -0.646411
2004-07-15 07:54:55 51°14.512 2°43.893 21.085244 4.673943 34.389896 -0.646411
2004-07-15 07:55:00 51°14.511 2°43.863 21.086081 4.673626 34.387285 -0.646411
2004-07-15 07:55:05 51°14.51 2°43.832 21.087077 4.673732 34.389324 -0.646411
2004-07-15 07:55:08 51°14.509 2°43.814 21.087914 4.673837 34.389026 -0.646411
2004-07-15 07:55:15 51°14.508 2°43.772 21.08899 4.673732 34.389324 -0.646411
2004-07-15 07:55:19 51°14.508 2°43.747 21.090145 4.673732 34.389324 -0.646411
2004-07-15 07:55:25 51°14.506 2°43.711 21.090145 4.673732 34.389324 -0.646411
2004-07-15 07:55:30 51°14.506 2°43.68 21.09146 4.673837 34.38961 -0.612702
2004-07-15 07:55:35 51°14.504 2°43.65 21.092217 4.673626 34.388454 -0.646411
2004-07-15 07:55:40 51°14.503 2°43.62 21.093014 4.673837 34.38961 -0.646411
2004-07-15 07:55:44 51°14.502 2°43.595 21.093811 4.673626 34.38787 -0.646411
2004-07-15 07:55:50 51°14.501 2°43.559 21.093811 4.673626 34.38787 -0.646411
2004-07-15 07:55:55 51°14.5 2°43.528 21.094807 4.673732 34.389324 -0.646411
2004-07-15 07:55:59 51°14.499 2°43.504 21.095883 4.673837 34.389026 -0.646411
2004-07-15 07:56:05 51°14.497 2°43.467 21.096799 4.673626 34.38787 -0.646411
2004-07-15 07:56:09 51°14.496 2°43.443 21.097556 4.673521 34.387 -0.646411
2004-07-15 07:56:15 51°14.495 2°43.406 21.098552 4.673626 34.387285 -0.646411
2004-07-15 07:56:20 51°14.494 2°43.375 21.098552 4.673626 34.387285 -0.646411
2004-07-15 07:56:25 51°14.493 2°43.344 21.099628 4.673732 34.38874 -0.646411
2004-07-15 07:56:29 51°14.492 2°43.32 21.100743 4.673626 34.38787 -0.646411
2004-07-15 07:56:35 51°14.491 2°43.283 21.10154 4.673626 34.386701 -0.680121
2004-07-15 07:56:40 51°14.49 2°43.253 21.102177 4.673626 34.38787 -0.646411
2004-07-15 07:56:44 51°14.489 2°43.228 21.102974 4.673626 34.38787 -0.680121
2004-07-15 07:56:49 51°14.488 2°43.198 21.102974 4.673626 34.38787 -0.680121
2004-07-15 07:56:55 51°14.486 2°43.161 21.10397 4.673837 34.38961 -0.646411
2004-07-15 07:57:00 51°14.485 2°43.13 21.104966 4.673521 34.387584 -0.680121
2004-07-15 07:57:05 51°14.484 2°43.1 21.105882 4.673837 34.389026 -0.646411
2004-07-15 07:57:11 51°14.483 2°43.063 21.106798 4.673732 34.388156 -0.646411
2004-07-15 07:57:15 51°14.482 2°43.038 21.107794 4.673732 34.388156 -0.646411
2004-07-15 07:57:19 51°14.481 2°43.014 21.107794 4.673732 34.388156 -0.646411
2004-07-15 07:57:25 51°14.48 2°42.977 21.108631 4.673415 34.385545 -0.646411
2004-07-15 07:57:28 51°14.48 2°42.959 21.109786 4.673626 34.387285 -0.646411
2004-07-15 07:57:35 51°14.479 2°42.916 21.110862 4.673521 34.385831 -0.646411
2004-07-15 07:57:40 51°14.479 2°42.885 21.111818 4.673732 34.388156 -0.646411
2004-07-15 07:57:45 51°14.478 2°42.855 21.112813 4.673837 34.389026 -0.612702
2004-07-15 07:57:49 51°14.478 2°42.831 21.112813 4.673837 34.389026 -0.612702
2004-07-15 07:57:55 51°14.478 2°42.794 21.114128 4.673626 34.386701 -0.646411
2004-07-15 07:58:00 51°14.477 2°42.764 21.115283 4.673837 34.389026 -0.612702
2004-07-15 07:58:05 51°14.477 2°42.733 21.116279 4.673626 34.387285 -0.646411
2004-07-15 07:58:09 51°14.476 2°42.709 21.117115 4.673521 34.387 -0.646411
2004-07-15 07:58:15 51°14.476 2°42.672 21.117872 4.673732 34.388156 -0.612702
2004-07-15 07:58:19 51°14.476 2°42.648 21.119186 4.673626 34.387285 -0.680121
2004-07-15 07:58:25 51°14.475 2°42.611 21.119186 4.673626 34.387285 -0.680121
2004-07-15 07:58:31 51°14.475 2°42.575 21.120381 4.673626 34.387285 -0.646411
2004-07-15 07:58:35 51°14.475 2°42.551 21.121377 4.673732 34.388156 -0.646411
2004-07-15 07:58:40 51°14.474 2°42.52 21.122134 4.673521 34.386415 -0.646411
2004-07-15 07:58:45 51°14.474 2°42.49 21.123368 4.673626 34.387285 -0.646411
2004-07-15 07:58:49 51°14.473 2°42.466 21.124603 4.673837 34.389026 -0.646411
2004-07-15 07:58:55 51°14.473 2°42.43 21.124603 4.673837 34.389026 -0.646411
2004-07-15 07:59:00 51°14.473 2°42.4 21.125519 4.673521 34.386415 -0.646411
2004-07-15 07:59:05 51°14.472 2°42.37 21.126037 4.673732 34.388156 -0.646411
2004-07-15 07:59:11 51°14.472 2°42.334 21.127032 4.673626 34.386701 -0.646411
2004-07-15 07:59:15 51°14.472 2°42.31 21.128187 4.673626 34.387285 -0.646411
2004-07-15 07:59:20 51°14.471 2°42.279 21.128187 4.673626 34.387285 -0.646411
2004-07-15 07:59:25 51°14.47 2°42.249 21.129262 4.673732 34.388156 -0.612702
2004-07-15 07:59:30 51°14.47 2°42.22 21.130338 4.673837 34.389026 -0.646411
2004-07-15 07:59:35 51°14.47 2°42.19 21.131253 4.673521 34.386415 -0.680121
2004-07-15 07:59:40 51°14.469 2°42.16 21.132329 4.673521 34.386415 -0.680121
2004-07-15 07:59:45 51°14.469 2°42.13 21.133523 4.673732 34.387571 -0.680121
2004-07-15 07:59:51 51°14.468 2°42.094 21.133523 4.673732 34.387571 -0.680121
2004-07-15 07:59:55 51°14.468 2°42.07 21.13432 4.673626 34.38787 -0.680121
2004-07-15 08:00:00 51°14.467 2°42.04 21.135355 4.673837 34.389026 -0.680121
2004-07-15 08:00:05 51°14.467 2°42.01 21.13651 4.673521 34.385831 -0.680121
2004-07-15 08:00:10 51°14.466 2°41.981 21.137585 4.673626 34.387285 -0.680121
2004-07-15 08:00:15 51°14.466 2°41.951 21.13858 4.673521 34.386415 -0.646411
2004-07-15 08:00:20 51°14.466 2°41.921 21.13858 4.673521 34.386415 -0.646411
2004-07-15 08:00:25 51°14.465 2°41.891 21.139496 4.673521 34.385831 -0.646411
2004-07-15 08:00:31 51°14.464 2°41.855 21.140492 4.673626 34.386701 -0.646411
2004-07-15 08:00:35 51°14.464 2°41.831 21.141567 4.673626 34.387285 -0.646411
2004-07-15 08:00:39 51°14.464 2°41.807 21.142482 4.673521 34.386415 -0.646411
2004-07-15 08:00:45 51°14.463 2°41.772 21.143239 4.673626 34.387285 -0.646411
2004-07-15 08:00:50 51°14.463 2°41.742 21.143239 4.673626 34.387285 -0.646411
2004-07-15 08:00:55 51°14.462 2°41.712 21.143995 4.673521 34.386415 -0.612702
2004-07-15 08:01:00 51°14.462 2°41.682 21.144991 4.673415 34.385545 -0.646411
2004-07-15 08:01:05 51°14.461 2°41.652 21.145906 4.673521 34.386415 -0.612702
2004-07-15 08:01:10 51°14.461 2°41.622 21.146981 4.673521 34.386415 -0.646411
2004-07-15 08:01:15 51°14.46 2°41.592 21.147977 4.673415 34.386129 -0.680121
2004-07-15 08:01:20 51°14.46 2°41.562 21.147977 4.673415 34.386129 -0.680121
2004-07-15 08:01:24 51°14.459 2°41.538 21.149052 4.673626 34.387285 -0.680121
2004-07-15 08:01:27 51°14.459 2°41.521 21.149888 4.67331 34.384675 -0.680121
2004-07-15 08:01:35 51°14.458 2°41.473 21.150803 4.673732 34.388156 -0.612702
2004-07-15 08:01:39 51°14.458 2°41.449 21.151878 4.67331 34.384675 -0.680121
2004-07-15 08:01:45 51°14.456 2°41.414 21.152794 4.673521 34.387584 -0.646411
2004-07-15 08:01:49 51°14.454 2°41.39 21.15363 4.673521 34.387584 -0.646411
2004-07-15 08:01:55 51°14.451 2°41.355 21.15363 4.673521 34.387584 -0.646411
2004-07-15 08:02:00 51°14.447 2°41.326 21.153988 4.673521 34.387 -0.680121
2004-07-15 08:02:05 51°14.444 2°41.296 21.155063 4.67331 34.385844 -0.680121
2004-07-15 08:02:11 51°14.439 2°41.261 21.15578 4.673521 34.387 -0.646411
2004-07-15 08:02:15 51°14.436 2°41.238 21.156536 4.67331 34.385259 -0.646411
2004-07-15 08:02:20 51°14.433 2°41.208 21.157054 4.673626 34.38787 -0.646411
2004-07-15 08:02:25 51°14.429 2°41.179 21.157054 4.673626 34.38787 -0.646411
2004-07-15 08:02:29 51°14.426 2°41.155 21.157969 4.673626 34.387285 -0.680121
2004-07-15 08:02:35 51°14.421 2°41.12 21.158964 4.673521 34.385831 -0.646411
2004-07-15 08:02:39 51°14.419 2°41.096 21.15988 4.673521 34.386415 -0.680121
2004-07-15 08:02:45 51°14.415 2°41.061 21.160875 4.67331 34.384675 -0.646411
2004-07-15 08:02:50 51°14.412 2°41.031 21.160875 4.67331 34.384675 -0.646411
2004-07-15 08:02:55 51°14.409 2°41.002 21.16179 4.67331 34.385259 -0.646411
2004-07-15 08:03:00 51°14.407 2°40.972 21.162626 4.673521 34.386415 -0.646411
2004-07-15 08:03:05 51°14.404 2°40.943 21.163303 4.673521 34.387 -0.646411
2004-07-15 08:03:11 51°14.401 2°40.907 21.164537 4.67331 34.385259 -0.646411
2004-07-15 08:03:15 51°14.399 2°40.883 21.165492 4.673415 34.386714 -0.646411
2004-07-15 08:03:20 51°14.397 2°40.854 21.165492 4.673415 34.386714 -0.646411
2004-07-15 08:03:25 51°14.394 2°40.824 21.166527 4.673415 34.386129 -0.680121
2004-07-15 08:03:30 51°14.391 2°40.795 21.167482 4.67331 34.385259 -0.646411
2004-07-15 08:03:35 51°14.389 2°40.766 21.168358 4.67331 34.385259 -0.680121
2004-07-15 08:03:40 51°14.386 2°40.736 21.169194 4.67331 34.386428 -0.646411
2004-07-15 08:03:45 51°14.383 2°40.706 21.170189 4.67331 34.385259 -0.680121
2004-07-15 08:03:50 51°14.381 2°40.677 21.170189 4.67331 34.385259 -0.680121
2004-07-15 08:03:55 51°14.378 2°40.647 21.171343 4.67331 34.385259 -0.646411
2004-07-15 08:04:00 51°14.375 2°40.618 21.172656 4.673204 34.384389 -0.646411
2004-07-15 08:04:05 51°14.373 2°40.588 21.173572 4.673099 34.383519 -0.646411
2004-07-15 08:04:10 51°14.37 2°40.559 21.174567 4.673204 34.384389 -0.646411
2004-07-15 08:04:15 51°14.367 2°40.529 21.175442 4.67331 34.385844 -0.680121
2004-07-15 08:04:20 51°14.364 2°40.5 21.175442 4.67331 34.385844 -0.680121
2004-07-15 08:04:25 51°14.361 2°40.47 21.176397 4.67331 34.385844 -0.646411
2004-07-15 08:04:30 51°14.359 2°40.441 21.177233 4.67331 34.385844 -0.680121
2004-07-15 08:04:35 51°14.356 2°40.412 21.178148 4.673204 34.385558 -0.646411
2004-07-15 08:04:39 51°14.354 2°40.388 21.178865 4.67331 34.386428 -0.680121
2004-07-15 08:04:45 51°14.351 2°40.353 21.17982 4.673204 34.385558 -0.646411
2004-07-15 08:04:51 51°14.348 2°40.317 21.17982 4.673204 34.385558 -0.646411
2004-07-15 08:04:55 51°14.346 2°40.294 21.180775 4.673099 34.384688 -0.646411
2004-07-15 08:05:00 51°14.343 2°40.264 21.18173 4.673204 34.384973 -0.646411
2004-07-15 08:05:05 51°14.34 2°40.235 21.182765 4.672993 34.383233 -0.680121
2004-07-15 08:05:09 51°14.338 2°40.211 21.18372 4.672993 34.383233 -0.646411
2004-07-15 08:05:15 51°14.335 2°40.176 21.184555 4.673204 34.384973 -0.646411
2004-07-15 08:05:20 51°14.332 2°40.147 21.18551 4.672888 34.382363 -0.646411
2004-07-15 08:05:25 51°14.33 2°40.118 21.18551 4.672888 34.382363 -0.646411
2004-07-15 08:05:29 51°14.327 2°40.095 21.186306 4.673099 34.384688 -0.646411
2004-07-15 08:05:35 51°14.325 2°40.06 21.187221 4.673099 34.384103 -0.646411
2004-07-15 08:05:40 51°14.322 2°40.03 21.188057 4.672782 34.381493 -0.680121
2004-07-15 08:05:45 51°14.32 2°40.001 21.189052 4.67331 34.386428 -0.680121
2004-07-15 08:05:49 51°14.317 2°39.978 21.190007 4.672993 34.383817 -0.646411
2004-07-15 08:05:55 51°14.314 2°39.942 21.190007 4.672993 34.383817 -0.646411
2004-07-15 08:06:00 51°14.311 2°39.913 21.191001 4.672993 34.383817 -0.646411
2004-07-15 08:06:05 51°14.309 2°39.884 21.191877 4.673099 34.384103 -0.680121
2004-07-15 08:06:11 51°14.306 2°39.849 21.19311 4.672677 34.381207 -0.612702
2004-07-15 08:06:15 51°14.304 2°39.825 21.193985 4.673204 34.384973 -0.646411
2004-07-15 08:06:20 51°14.301 2°39.796 21.19494 4.672888 34.382947 -0.646411
2004-07-15 08:06:25 51°14.298 2°39.767 21.19494 4.672888 34.382947 -0.646411
2004-07-15 08:06:30 51°14.296 2°39.737 21.195696 4.673099 34.384688 -0.680121
2004-07-15 08:06:35 51°14.293 2°39.708 21.196412 4.67331 34.386428 -0.646411
2004-07-15 08:06:40 51°14.29 2°39.678 21.197447 4.672677 34.381791 -0.646411
2004-07-15 08:06:45 51°14.288 2°39.649 21.198203 4.673099 34.385272 -0.646411
2004-07-15 08:06:50 51°14.286 2°39.62 21.198203 4.673099 34.385272 -0.646411
2004-07-15 08:06:55 51°14.283 2°39.59 21.199197 4.672888 34.382363 -0.646411
2004-07-15 08:07:00 51°14.28 2°39.561 21.200351 4.672888 34.383532 -0.646411
2004-07-15 08:07:05 51°14.278 2°39.532 21.201425 4.672888 34.382947 -0.646411
2004-07-15 08:07:10 51°14.275 2°39.502 21.20242 4.672677 34.381207 -0.646411
2004-07-15 08:07:15 51°14.273 2°39.473 21.203414 4.673099 34.384688 -0.646411
2004-07-15 08:07:20 51°14.27 2°39.444 21.203414 4.673099 34.384688 -0.646411
2004-07-15 08:07:25 51°14.267 2°39.414 21.204488 4.672888 34.382947 -0.646411
2004-07-15 08:07:31 51°14.262 2°39.38 21.205244 4.672888 34.383532 -0.646411
2004-07-15 08:07:35 51°14.259 2°39.356 21.20608 4.673099 34.385272 -0.646411
2004-07-15 08:07:40 51°14.255 2°39.327 21.206915 4.672782 34.383246 -0.646411
2004-07-15 08:07:45 51°14.251 2°39.298 21.207671 4.672782 34.382661 -0.646411
2004-07-15 08:07:48 51°14.248 2°39.281 21.207671 4.672782 34.382661 -0.646411
2004-07-15 08:07:55 51°14.242 2°39.241 21.208506 4.672888 34.383532 -0.680121
2004-07-15 08:08:00 51°14.238 2°39.212 21.209421 4.672782 34.382077 -0.680121
2004-07-15 08:08:05 51°14.233 2°39.183 21.210376 4.672782 34.382661 -0.680121
2004-07-15 08:08:10 51°14.229 2°39.154 21.21137 4.672993 34.383817 -0.646411
2004-07-15 08:08:15 51°14.224 2°39.125 21.212206 4.672888 34.382947 -0.646411
2004-07-15 08:08:20 51°14.22 2°39.096 21.212206 4.672888 34.382947 -0.646411
2004-07-15 08:08:25 51°14.216 2°39.067 21.2132 4.672782 34.382077 -0.646411
2004-07-15 08:08:31 51°14.21 2°39.032 21.214035 4.672571 34.380921 -0.680121
2004-07-15 08:08:35 51°14.207 2°39.009 21.21495 4.672888 34.382947 -0.680121
2004-07-15 08:08:40 51°14.202 2°38.979 21.215865 4.672677 34.381207 -0.646411
2004-07-15 08:08:45 51°14.198 2°38.95 21.216621 4.672677 34.381791 -0.680121
2004-07-15 08:08:51 51°14.193 2°38.916 21.216621 4.672677 34.381791 -0.680121
2004-07-15 08:08:55 51°14.189 2°38.892 21.217615 4.672782 34.382077 -0.646411
2004-07-15 08:09:00 51°14.185 2°38.863 21.218729 4.672677 34.381791 -0.646411
2004-07-15 08:09:05 51°14.18 2°38.834 21.219484 4.672782 34.382661 -0.646411
2004-07-15 08:09:09 51°14.177 2°38.81 21.220399 4.672888 34.383532 -0.680121
2004-07-15 08:09:15 51°14.172 2°38.775 21.221433 4.672571 34.380337 -0.646411
2004-07-15 08:09:20 51°14.168 2°38.746 21.221433 4.672571 34.380337 -0.646411
2004-07-15 08:09:25 51°14.163 2°38.716 21.222348 4.672782 34.382661 -0.680121
2004-07-15 08:09:30 51°14.159 2°38.687 21.223302 4.672677 34.381791 -0.680121
2004-07-15 08:09:35 51°14.154 2°38.657 21.224138 4.672782 34.382661 -0.646411
2004-07-15 08:09:40 51°14.15 2°38.628 21.224973 4.672677 34.381791 -0.646411
2004-07-15 08:09:45 51°14.145 2°38.598 21.226126 4.672571 34.380337 -0.646411
2004-07-15 08:09:50 51°14.141 2°38.569 21.226126 4.672571 34.380337 -0.646411
2004-07-15 08:09:55 51°14.135 2°38.54 21.226643 4.672677 34.381791 -0.646411
2004-07-15 08:10:00 51°14.13 2°38.511 21.227438 4.672571 34.380921 -0.646411
2004-07-15 08:10:05 51°14.124 2°38.482 21.227955 4.672571 34.381505 -0.680121
2004-07-15 08:10:10 51°14.118 2°38.453 21.228472 4.672677 34.382375 -0.646411
2004-07-15 08:10:15 51°14.112 2°38.424 21.229427 4.672571 34.380921 -0.646411
2004-07-15 08:10:19 51°14.107 2°38.401 21.229427 4.672571 34.380921 -0.646411
2004-07-15 08:10:25 51°14.099 2°38.367 21.230262 4.672466 34.380635 -0.646411
2004-07-15 08:10:31 51°14.091 2°38.333 21.231256 4.672571 34.381505 -0.680121
2004-07-15 08:10:35 51°14.086 2°38.31 21.23233 4.672677 34.381207 -0.646411
2004-07-15 08:10:40 51°14.08 2°38.281 21.233006 4.67236 34.379181 -0.646411
2004-07-15 08:10:45 51°14.074 2°38.252 21.233761 4.672782 34.382077 -0.646411
2004-07-15 08:10:50 51°14.068 2°38.223 21.233761 4.672782 34.382077 -0.646411
2004-07-15 08:10:55 51°14.062 2°38.194 21.234755 4.672466 34.380051 -0.680121
2004-07-15 08:11:00 51°14.055 2°38.165 21.23567 4.67236 34.379181 -0.646411
2004-07-15 08:11:05 51°14.049 2°38.137 21.236425 4.672571 34.380921 -0.646411
2004-07-15 08:11:09 51°14.044 2°38.113 21.237221 4.672571 34.380921 -0.646411
2004-07-15 08:11:15 51°14.037 2°38.079 21.238135 4.67236 34.379181 -0.680121
2004-07-15 08:11:20 51°14.031 2°38.05 21.238135 4.67236 34.379181 -0.680121
2004-07-15 08:11:25 51°14.025 2°38.021 21.23897 4.672677 34.382375 -0.680121
2004-07-15 08:11:31 51°14.017 2°37.986 21.240044 4.672466 34.380051 -0.646411
2004-07-15 08:11:35 51°14.013 2°37.963 21.240799 4.672571 34.380921 -0.646411
2004-07-15 08:11:40 51°14.006 2°37.934 21.241555 4.672466 34.380635 -0.646411
2004-07-15 08:11:45 51°14.001 2°37.905 21.24231 4.672571 34.379752 -0.646411
2004-07-15 08:11:49 51°13.996 2°37.882 21.24231 4.672571 34.379752 -0.646411
2004-07-15 08:11:55 51°13.989 2°37.847 21.243105 4.672466 34.380051 -0.680121
2004-07-15 08:12:00 51°13.982 2°37.818 21.24402 4.672255 34.37831 -0.646411
2004-07-15 08:12:05 51°13.977 2°37.789 21.245173 4.672466 34.379466 -0.646411
2004-07-15 08:12:10 51°13.97 2°37.76 21.245849 4.67236 34.379181 -0.646411
2004-07-15 08:12:15 51°13.964 2°37.731 21.246843 4.67236 34.379181 -0.646411
2004-07-15 08:12:19 51°13.959 2°37.708 21.246843 4.67236 34.379181 -0.646411
2004-07-15 08:12:23 51°13.954 2°37.685 21.247837 4.672255 34.37831 -0.680121
2004-07-15 08:12:29 51°13.947 2°37.65 21.248671 4.672571 34.380921 -0.646411
2004-07-15 08:12:35 51°13.94 2°37.615 21.249427 4.67236 34.379181 -0.680121
2004-07-15 08:12:40 51°13.933 2°37.586 21.249983 4.67236 34.379765 -0.646411
2004-07-15 08:12:45 51°13.928 2°37.557 21.250818 4.672255 34.378895 -0.646411
2004-07-15 08:12:51 51°13.92 2°37.522 21.251971 4.672149 34.37744 -0.646411
2004-07-15 08:12:55 51°13.915 2°37.499 21.251971 4.672149 34.37744 -0.646411
2004-07-15 08:13:00 51°13.909 2°37.47 21.253044 4.672677 34.381791 -0.680121
2004-07-15 08:13:05 51°13.903 2°37.441 21.254038 4.67236 34.379181 -0.646411
2004-07-15 08:13:11 51°13.896 2°37.406 21.255112 4.672255 34.37831 -0.680121
2004-07-15 08:13:15 51°13.892 2°37.383 21.256026 4.672466 34.380051 -0.646411
2004-07-15 08:13:19 51°13.887 2°37.36 21.25694 4.672255 34.37831 -0.646411
2004-07-15 08:13:25 51°13.88 2°37.325 21.25694 4.672255 34.37831 -0.646411
2004-07-15 08:13:31 51°13.872 2°37.29 21.257855 4.672255 34.37831 -0.646411
2004-07-15 08:13:35 51°13.867 2°37.267 21.258848 4.672255 34.378895 -0.646411
2004-07-15 08:13:40 51°13.86 2°37.239 21.259842 4.672466 34.380051 -0.646411
2004-07-15 08:13:45 51°13.853 2°37.21 21.260438 4.672255 34.379479 -0.646411
2004-07-15 08:13:48 51°13.849 2°37.193 21.261114 4.672149 34.378024 -0.680121
2004-07-15 08:13:55 51°13.839 2°37.154 21.261114 4.672149 34.378024 -0.680121
2004-07-15 08:14:00 51°13.831 2°37.126 21.261989 4.672255 34.378895 -0.646411
2004-07-15 08:14:05 51°13.824 2°37.098 21.262744 4.672255 34.378895 -0.646411
2004-07-15 08:14:11 51°13.814 2°37.065 21.263419 4.672255 34.378895 -0.680121
2004-07-15 08:14:15 51°13.808 2°37.043 21.264334 4.672255 34.378895 -0.680121
2004-07-15 08:14:20 51°13.8 2°37.015 21.264334 4.672255 34.378895 -0.680121
2004-07-15 08:14:25 51°13.791 2°36.987 21.265168 4.67236 34.379765 -0.646411
2004-07-15 08:14:30 51°13.783 2°36.96 21.266162 4.67236 34.379181 -0.646411
2004-07-15 08:14:35 51°13.775 2°36.932 21.266957 4.672255 34.37831 -0.646411
2004-07-15 08:14:40 51°13.767 2°36.904 21.267951 4.672466 34.380051 -0.646411
2004-07-15 08:14:45 51°13.76 2°36.877 21.269103 4.672255 34.37831 -0.646411
2004-07-15 08:14:50 51°13.752 2°36.849 21.269103 4.672255 34.37831 -0.646411
2004-07-15 08:14:55 51°13.744 2°36.821 21.270017 4.67236 34.379765 -0.680121
2004-07-15 08:14:59 51°13.737 2°36.799 21.270772 4.672255 34.378895 -0.646411
2004-07-15 08:15:05 51°13.728 2°36.766 21.271607 4.672149 34.37744 -0.646411
2004-07-15 08:15:07 51°13.725 2°36.755 21.272084 4.671938 34.376284 -0.680121
2004-07-15 08:15:15 51°13.711 2°36.711 21.272879 4.672571 34.381505 -0.646411
2004-07-15 08:15:20 51°13.704 2°36.683 21.272879 4.672571 34.381505 -0.646411
2004-07-15 08:15:25 51°13.695 2°36.655 21.273912 4.671938 34.376868 -0.646411
2004-07-15 08:15:29 51°13.689 2°36.633 21.274985 4.672255 34.378895 -0.646411
2004-07-15 08:15:35 51°13.68 2°36.6 21.27574 4.672255 34.37831 -0.646411
2004-07-15 08:15:40 51°13.672 2°36.572 21.276694 4.672255 34.378895 -0.646411
2004-07-15 08:15:45 51°13.664 2°36.544 21.277727 4.672149 34.378024 -0.646411
2004-07-15 08:15:50 51°13.656 2°36.517 21.277727 4.672149 34.378024 -0.646411
2004-07-15 08:15:55 51°13.648 2°36.489 21.278562 4.672044 34.377154 -0.680121
2004-07-15 08:16:00 51°13.64 2°36.461 21.279714 4.672044 34.377738 -0.646411
2004-07-15 08:16:05 51°13.632 2°36.434 21.280469 4.672044 34.377154 -0.612702
2004-07-15 08:16:10 51°13.625 2°36.406 21.281622 4.671938 34.376284 -0.646411
2004-07-15 08:16:15 51°13.617 2°36.378 21.282536 4.672149 34.378609 -0.646411
2004-07-15 08:16:19 51°13.61 2°36.356 21.282536 4.672149 34.378609 -0.646411
2004-07-15 08:16:25 51°13.601 2°36.323 21.283609 4.672149 34.378024 -0.680121
2004-07-15 08:16:31 51°13.591 2°36.29 21.284523 4.672149 34.378609 -0.71383
2004-07-15 08:16:35 51°13.584 2°36.269 21.285595 4.672149 34.378609 -0.680121
2004-07-15 08:16:40 51°13.575 2°36.241 21.28635 4.672044 34.377738 -0.680121
2004-07-15 08:16:45 51°13.567 2°36.214 21.287264 4.671938 34.376868 -0.646411
2004-07-15 08:16:51 51°13.556 2°36.182 21.288337 4.671938 34.376868 -0.646411
2004-07-15 08:16:55 51°13.549 2°36.161 21.288337 4.671938 34.376868 -0.646411
2004-07-15 08:17:00 51°13.54 2°36.134 21.289052 4.672044 34.377154 -0.680121
2004-07-15 08:17:05 51°13.532 2°36.107 21.289847 4.671938 34.376868 -0.680121
2004-07-15 08:17:09 51°13.525 2°36.085 21.290562 4.671938 34.376868 -0.646411
2004-07-15 08:17:15 51°13.515 2°36.053 21.291079 4.672149 34.378609 -0.680121
2004-07-15 08:17:20 51°13.506 2°36.026 21.291079 4.672149 34.378609 -0.680121
2004-07-15 08:17:25 51°13.497 2°35.999 21.291714 4.671833 34.375998 -0.680121
2004-07-15 08:17:29 51°13.49 2°35.978 21.292748 4.672149 34.378609 -0.680121
2004-07-15 08:17:35 51°13.48 2°35.945 21.293979 4.671938 34.377453 -0.612702
2004-07-15 08:17:40 51°13.471 2°35.918 21.294734 4.672044 34.377738 -0.646411
2004-07-15 08:17:45 51°13.462 2°35.892 21.295529 4.672044 34.377738 -0.646411
2004-07-15 08:17:50 51°13.453 2°35.865 21.296125 4.672149 34.378609 -0.646411
2004-07-15 08:17:55 51°13.445 2°35.838 21.296125 4.672149 34.378609 -0.646411
2004-07-15 08:18:00 51°13.436 2°35.811 21.296959 4.671727 34.375712 -0.646411
2004-07-15 08:18:05 51°13.428 2°35.784 21.297952 4.672044 34.377738 -0.646411
2004-07-15 08:18:10 51°13.419 2°35.757 21.298786 4.672149 34.378609 -0.646411
2004-07-15 08:18:15 51°13.41 2°35.73 21.29974 4.671833 34.376582 -0.680121
2004-07-15 08:18:19 51°13.403 2°35.709 21.29974 4.671833 34.376582 -0.680121
2004-07-15 08:18:25 51°13.393 2°35.676 21.300813 4.672044 34.378323 -0.646411
2004-07-15 08:18:31 51°13.383 2°35.644 21.301806 4.671727 34.375712 -0.646411
2004-07-15 08:18:35 51°13.375 2°35.623 21.302719 4.671833 34.377167 -0.646411
2004-07-15 08:18:40 51°13.367 2°35.596 21.303554 4.671833 34.376582 -0.680121
2004-07-15 08:18:45 51°13.358 2°35.569 21.304626 4.671833 34.376582 -0.680121
2004-07-15 08:18:50 51°13.35 2°35.542 21.304626 4.671833 34.376582 -0.680121
2004-07-15 08:18:55 51°13.341 2°35.515 21.305619 4.671833 34.377167 -0.646411
2004-07-15 08:19:00 51°13.333 2°35.488 21.306454 4.672044 34.378323 -0.646411
2004-07-15 08:19:05 51°13.324 2°35.461 21.30697 4.671938 34.378621 -0.646411
2004-07-15 08:19:11 51°13.314 2°35.429 21.307764 4.671727 34.376881 -0.646411
2004-07-15 08:19:15 51°13.307 2°35.407 21.3084 4.671622 34.37601 -0.646411
2004-07-15 08:19:20 51°13.298 2°35.38 21.3084 4.671622 34.37601 -0.646411
2004-07-15 08:19:25 51°13.29 2°35.353 21.309473 4.671938 34.378621 -0.680121
2004-07-15 08:19:29 51°13.283 2°35.332 21.310505 4.671833 34.377167 -0.680121
2004-07-15 08:19:35 51°13.272 2°35.3 21.311657 4.671622 34.37601 -0.680121
2004-07-15 08:19:40 51°13.264 2°35.273 21.31265 4.671727 34.376881 -0.680121
2004-07-15 08:19:45 51°13.255 2°35.246 21.313326 4.671516 34.37514 -0.646411
2004-07-15 08:19:51 51°13.245 2°35.214 21.313762 4.671727 34.376881 -0.646411
2004-07-15 08:19:55 51°13.238 2°35.192 21.313762 4.671727 34.376881 -0.646411
2004-07-15 08:20:00 51°13.229 2°35.165 21.314716 4.671727 34.376881 -0.646411
2004-07-15 08:20:05 51°13.221 2°35.138 21.315788 4.671727 34.376881 -0.680121
2004-07-15 08:20:10 51°13.212 2°35.111 21.316781 4.671727 34.376881 -0.646411
2004-07-15 08:20:15 51°13.203 2°35.084 21.317615 4.671516 34.375724 -0.646411
2004-07-15 08:20:19 51°13.196 2°35.062 21.31833 4.671516 34.375724 -0.680121
2004-07-15 08:20:25 51°13.186 2°35.03 21.31833 4.671516 34.375724 -0.680121
2004-07-15 08:20:31 51°13.175 2°34.998 21.319323 4.671622 34.37601 -0.646411
2004-07-15 08:20:35 51°13.169 2°34.976 21.320515 4.671305 34.373984 -0.646411
2004-07-15 08:20:40 51°13.16 2°34.949 21.321468 4.671622 34.376595 -0.680121
2004-07-15 08:20:45 51°13.151 2°34.922 21.322302 4.671516 34.37514 -0.646411
2004-07-15 08:20:51 51°13.141 2°34.89 21.323096 4.671622 34.377179 -0.680121
2004-07-15 08:20:55 51°13.134 2°34.868 21.323096 4.671622 34.377179 -0.680121
2004-07-15 08:21:00 51°13.125 2°34.841 21.324089 4.671411 34.375438 -0.646411
2004-07-15 08:21:05 51°13.117 2°34.814 21.324724 4.671622 34.376595 -0.646411
2004-07-15 08:21:11 51°13.106 2°34.782 21.325717 4.671305 34.374568 -0.646411
2004-07-15 08:21:15 51°13.099 2°34.76 21.326631 4.671411 34.375438 -0.680121
2004-07-15 08:21:20 51°13.091 2°34.733 21.327663 4.671411 34.374854 -0.646411
2004-07-15 08:21:23 51°13.086 2°34.717 21.327663 4.671411 34.374854 -0.646411
2004-07-15 08:21:31 51°13.072 2°34.674 21.328497 4.671516 34.376309 -0.646411
2004-07-15 08:21:35 51°13.065 2°34.653 21.32949 4.6712 34.374866 -0.646411
2004-07-15 08:21:40 51°13.056 2°34.625 21.330363 4.671516 34.376309 -0.680121
2004-07-15 08:21:45 51°13.047 2°34.599 21.331118 4.671411 34.376607 -0.680121
2004-07-15 08:21:50 51°13.039 2°34.572 21.331118 4.671411 34.376607 -0.680121
2004-07-15 08:21:55 51°13.03 2°34.545 21.332031 4.671305 34.375737 -0.646411
2004-07-15 08:22:00 51°13.022 2°34.518 21.333262 4.671305 34.375152 -0.680121
2004-07-15 08:22:05 51°13.013 2°34.491 21.334096 4.671305 34.375737 -0.646411
2004-07-15 08:22:10 51°13.005 2°34.464 21.335009 4.671305 34.375152 -0.646411
2004-07-15 08:22:15 51°12.996 2°34.438 21.335923 4.6712 34.374282 -0.680121
2004-07-15 08:22:19 51°12.989 2°34.417 21.335923 4.6712 34.374282 -0.680121
2004-07-15 08:22:25 51°12.978 2°34.385 21.336637 4.6712 34.375451 -0.646411
2004-07-15 08:22:31 51°12.968 2°34.353 21.33763 4.671411 34.376023 -0.646411
2004-07-15 08:22:35 51°12.961 2°34.332 21.338543 4.671305 34.375737 -0.646411
2004-07-15 08:22:40 51°12.953 2°34.305 21.339457 4.671094 34.373996 -0.680121
2004-07-15 08:22:45 51°12.944 2°34.278 21.34029 4.671094 34.37458 -0.612702
2004-07-15 08:22:50 51°12.936 2°34.251 21.34029 4.671094 34.37458 -0.612702
2004-07-15 08:22:55 51°12.927 2°34.225 21.341283 4.670989 34.37371 -0.680121
2004-07-15 08:23:00 51°12.918 2°34.198 21.342276 4.6712 34.375451 -0.646411
2004-07-15 08:23:05 51°12.91 2°34.172 21.343229 4.670989 34.37371 -0.680121
2004-07-15 08:23:11 51°12.9 2°34.14 21.344102 4.670778 34.37197 -0.646411
2004-07-15 08:23:15 51°12.893 2°34.119 21.344817 4.670989 34.37371 -0.646411
2004-07-15 08:23:20 51°12.884 2°34.092 21.344817 4.670989 34.37371 -0.646411
2004-07-15 08:23:25 51°12.876 2°34.066 21.345412 4.671094 34.375749 -0.680121
2004-07-15 08:23:29 51°12.869 2°34.044 21.346564 4.671094 34.375165 -0.646411
2004-07-15 08:23:32 51°12.864 2°34.029 21.347556 4.671094 34.375165 -0.680121
2004-07-15 08:23:40 51°12.85 2°33.986 21.348231 4.671094 34.375165 -0.680121
2004-07-15 08:23:45 51°12.841 2°33.96 21.349025 4.670883 34.374009 -0.646411
2004-07-15 08:23:51 51°12.831 2°33.928 21.350176 4.671094 34.375165 -0.680121
2004-07-15 08:23:55 51°12.824 2°33.907 21.350176 4.671094 34.375165 -0.680121
2004-07-15 08:23:59 51°12.817 2°33.885 21.351169 4.670883 34.374593 -0.646411
2004-07-15 08:24:05 51°12.807 2°33.854 21.351844 4.6712 34.376035 -0.646411
2004-07-15 08:24:09 51°12.8 2°33.833 21.352558 4.670989 34.374294 -0.646411
2004-07-15 08:24:15 51°12.789 2°33.801 21.353471 4.670778 34.373138 -0.680121
2004-07-15 08:24:20 51°12.781 2°33.774 21.354583 4.670883 34.374009 -0.646411
2004-07-15 08:24:25 51°12.772 2°33.748 21.354583 4.670883 34.374009 -0.646411
2004-07-15 08:24:30 51°12.764 2°33.721 21.355377 4.670672 34.372852 -0.646411
2004-07-15 08:24:35 51°12.755 2°33.695 21.355972 4.670883 34.374593 -0.646411
2004-07-15 08:24:39 51°12.748 2°33.674 21.357123 4.671094 34.375749 -0.612702